<?xml version="1.0" encoding="UTF-8" standalone="no" ?>
<gpx xmlns="http://www.topografix.com/GPX/1/1" xmlns:xsi="http://www.w3.org/2001/XMLSchema-instance" xsi:schemaLocation="http://www.topografix.com/GPX/1/1 http://www.topografix.com/GPX/1/1/gpx.xsd" version="1.1" creator="VisuGPX - https://www.visugpx.com">
  <metadata>
    <name>Pointe du Riondet</name>
    <desc><![CDATA[Suivre le chemin menant au col de la Louze. Juste après "Les Caves" monter dans les alpages de droite pour rejoindre un chemin, il passe au dessus de petites falaises avant de rejoindre les grands alpages sous le sommet.]]></desc>
  </metadata>
  <trk>
    <name><![CDATA[2017-07-11 08:39]]></name>
    <desc><![CDATA[<p>Heure de départ: 07/11/2017 08:39</p><p>Heure d'arrivée: 07/11/2017 12:15</p><p>Distance: 13,8 km (03:36)</p><p>Temps déplacement: 03:07</p><p>Vitesse moyenne: 3,83 km/h</p><p>Vitesse moyenne mouv.: 4,42 km/h</p><p>Vitesse Max.: 13,28km/h</p><p>Altitude minimale: 1516 m</p><p>Altitude maximale: 2359 m</p><p>Vitesse de montée: 482,5 m/h</p><p>Vitesse de descente: -612,2 m/h</p><p>Gain d'altitude: 939 m</p><p>Perte d'altitude: -951 m</p><p>Temps de montée: 01:56</p><p>Temps de descente: 01:33</p><hr align="center" width="480" style="height: 2px; width: 517px"/>]]></desc>
    <trkseg>
      <trkpt lat="45.59227" lon="6.53207">
        <ele>1537.63</ele>
        <time>2017-07-11T06:39:46Z</time>
      </trkpt>
      <trkpt lat="45.59244" lon="6.53201">
        <ele>1529.53</ele>
        <time>2017-07-11T06:40:08Z</time>
      </trkpt>
      <trkpt lat="45.59263" lon="6.53195">
        <ele>1528.74</ele>
        <time>2017-07-11T06:40:21Z</time>
      </trkpt>
      <trkpt lat="45.59281" lon="6.532">
        <ele>1521.57</ele>
        <time>2017-07-11T06:40:34Z</time>
      </trkpt>
      <trkpt lat="45.59296" lon="6.53215">
        <ele>1520.37</ele>
        <time>2017-07-11T06:40:51Z</time>
      </trkpt>
      <trkpt lat="45.59311" lon="6.53231">
        <ele>1519.57</ele>
        <time>2017-07-11T06:41:08Z</time>
      </trkpt>
      <trkpt lat="45.59324" lon="6.53252">
        <ele>1519.48</ele>
        <time>2017-07-11T06:41:23Z</time>
      </trkpt>
      <trkpt lat="45.59338" lon="6.53269">
        <ele>1523.28</ele>
        <time>2017-07-11T06:41:37Z</time>
      </trkpt>
      <trkpt lat="45.59357" lon="6.53269">
        <ele>1530.29</ele>
        <time>2017-07-11T06:41:49Z</time>
      </trkpt>
      <trkpt lat="45.59374" lon="6.5328">
        <ele>1529.33</ele>
        <time>2017-07-11T06:42:03Z</time>
      </trkpt>
      <trkpt lat="45.59392" lon="6.53289">
        <ele>1533.13</ele>
        <time>2017-07-11T06:42:21Z</time>
      </trkpt>
      <trkpt lat="45.59411" lon="6.53291">
        <ele>1536.29</ele>
        <time>2017-07-11T06:42:32Z</time>
      </trkpt>
      <trkpt lat="45.59426" lon="6.53305">
        <ele>1540.9</ele>
        <time>2017-07-11T06:42:46Z</time>
      </trkpt>
      <trkpt lat="45.59445" lon="6.53302">
        <ele>1533.81</ele>
        <time>2017-07-11T06:42:58Z</time>
      </trkpt>
      <trkpt lat="45.59457" lon="6.53324">
        <ele>1534.54</ele>
        <time>2017-07-11T06:43:11Z</time>
      </trkpt>
      <trkpt lat="45.59469" lon="6.53343">
        <ele>1535.52</ele>
        <time>2017-07-11T06:43:24Z</time>
      </trkpt>
      <trkpt lat="45.59487" lon="6.53355">
        <ele>1537.13</ele>
        <time>2017-07-11T06:43:38Z</time>
      </trkpt>
      <trkpt lat="45.59499" lon="6.53375">
        <ele>1539.53</ele>
        <time>2017-07-11T06:43:54Z</time>
      </trkpt>
      <trkpt lat="45.59512" lon="6.53395">
        <ele>1544.29</ele>
        <time>2017-07-11T06:44:10Z</time>
      </trkpt>
      <trkpt lat="45.59523" lon="6.53416">
        <ele>1552.33</ele>
        <time>2017-07-11T06:44:23Z</time>
      </trkpt>
      <trkpt lat="45.59539" lon="6.5343">
        <ele>1555.2</ele>
        <time>2017-07-11T06:44:38Z</time>
      </trkpt>
      <trkpt lat="45.59557" lon="6.53438">
        <ele>1555.53</ele>
        <time>2017-07-11T06:44:52Z</time>
      </trkpt>
      <trkpt lat="45.59565" lon="6.53462">
        <ele>1554.49</ele>
        <time>2017-07-11T06:45:07Z</time>
      </trkpt>
      <trkpt lat="45.59576" lon="6.53483">
        <ele>1557.33</ele>
        <time>2017-07-11T06:45:21Z</time>
      </trkpt>
      <trkpt lat="45.59588" lon="6.53503">
        <ele>1558.53</ele>
        <time>2017-07-11T06:45:34Z</time>
      </trkpt>
      <trkpt lat="45.59604" lon="6.53517">
        <ele>1561.29</ele>
        <time>2017-07-11T06:45:47Z</time>
      </trkpt>
      <trkpt lat="45.5962" lon="6.5353">
        <ele>1563.73</ele>
        <time>2017-07-11T06:46:01Z</time>
      </trkpt>
      <trkpt lat="45.59638" lon="6.53538">
        <ele>1560.37</ele>
        <time>2017-07-11T06:46:16Z</time>
      </trkpt>
      <trkpt lat="45.59656" lon="6.53544">
        <ele>1562.74</ele>
        <time>2017-07-11T06:46:32Z</time>
      </trkpt>
      <trkpt lat="45.59673" lon="6.53555">
        <ele>1560.53</ele>
        <time>2017-07-11T06:46:45Z</time>
      </trkpt>
      <trkpt lat="45.59686" lon="6.53574">
        <ele>1562.34</ele>
        <time>2017-07-11T06:46:59Z</time>
      </trkpt>
      <trkpt lat="45.59693" lon="6.53598">
        <ele>1564.69</ele>
        <time>2017-07-11T06:47:13Z</time>
      </trkpt>
      <trkpt lat="45.59706" lon="6.53618">
        <ele>1566.73</ele>
        <time>2017-07-11T06:47:30Z</time>
      </trkpt>
      <trkpt lat="45.59722" lon="6.5363">
        <ele>1568.51</ele>
        <time>2017-07-11T06:47:42Z</time>
      </trkpt>
      <trkpt lat="45.59732" lon="6.53652">
        <ele>1573.32</ele>
        <time>2017-07-11T06:47:56Z</time>
      </trkpt>
      <trkpt lat="45.59749" lon="6.53665">
        <ele>1573.49</ele>
        <time>2017-07-11T06:48:12Z</time>
      </trkpt>
      <trkpt lat="45.59762" lon="6.53683">
        <ele>1576.72</ele>
        <time>2017-07-11T06:48:25Z</time>
      </trkpt>
      <trkpt lat="45.59775" lon="6.53702">
        <ele>1578.13</ele>
        <time>2017-07-11T06:48:37Z</time>
      </trkpt>
      <trkpt lat="45.59787" lon="6.53723">
        <ele>1576.33</ele>
        <time>2017-07-11T06:48:55Z</time>
      </trkpt>
      <trkpt lat="45.598" lon="6.53741">
        <ele>1578.17</ele>
        <time>2017-07-11T06:49:10Z</time>
      </trkpt>
      <trkpt lat="45.59818" lon="6.53747">
        <ele>1580.68</ele>
        <time>2017-07-11T06:49:25Z</time>
      </trkpt>
      <trkpt lat="45.59836" lon="6.5375">
        <ele>1581.49</ele>
        <time>2017-07-11T06:49:41Z</time>
      </trkpt>
      <trkpt lat="45.59852" lon="6.53762">
        <ele>1582.53</ele>
        <time>2017-07-11T06:49:59Z</time>
      </trkpt>
      <trkpt lat="45.59863" lon="6.53784">
        <ele>1583.34</ele>
        <time>2017-07-11T06:50:49Z</time>
      </trkpt>
      <trkpt lat="45.5987" lon="6.53809">
        <ele>1584.34</ele>
        <time>2017-07-11T06:51:03Z</time>
      </trkpt>
      <trkpt lat="45.59886" lon="6.53824">
        <ele>1587.54</ele>
        <time>2017-07-11T06:51:16Z</time>
      </trkpt>
      <trkpt lat="45.59902" lon="6.53837">
        <ele>1589.5</ele>
        <time>2017-07-11T06:51:29Z</time>
      </trkpt>
      <trkpt lat="45.59914" lon="6.53856">
        <ele>1590.72</ele>
        <time>2017-07-11T06:51:43Z</time>
      </trkpt>
      <trkpt lat="45.59919" lon="6.53882">
        <ele>1591.72</ele>
        <time>2017-07-11T06:51:56Z</time>
      </trkpt>
      <trkpt lat="45.59934" lon="6.53896">
        <ele>1593.37</ele>
        <time>2017-07-11T06:52:10Z</time>
      </trkpt>
      <trkpt lat="45.59951" lon="6.53909">
        <ele>1594.53</ele>
        <time>2017-07-11T06:52:24Z</time>
      </trkpt>
      <trkpt lat="45.59963" lon="6.53929">
        <ele>1595.53</ele>
        <time>2017-07-11T06:52:37Z</time>
      </trkpt>
      <trkpt lat="45.5996" lon="6.53954">
        <ele>1589.74</ele>
        <time>2017-07-11T06:52:48Z</time>
      </trkpt>
      <trkpt lat="45.59978" lon="6.53962">
        <ele>1592.57</ele>
        <time>2017-07-11T06:52:57Z</time>
      </trkpt>
      <trkpt lat="45.59989" lon="6.53983">
        <ele>1600.28</ele>
        <time>2017-07-11T06:53:11Z</time>
      </trkpt>
      <trkpt lat="45.59996" lon="6.54008">
        <ele>1600.53</ele>
        <time>2017-07-11T06:53:25Z</time>
      </trkpt>
      <trkpt lat="45.60012" lon="6.54021">
        <ele>1602.32</ele>
        <time>2017-07-11T06:53:38Z</time>
      </trkpt>
      <trkpt lat="45.60013" lon="6.54049">
        <ele>1601.49</ele>
        <time>2017-07-11T06:53:50Z</time>
      </trkpt>
      <trkpt lat="45.60015" lon="6.54075">
        <ele>1599.37</ele>
        <time>2017-07-11T06:54:04Z</time>
      </trkpt>
      <trkpt lat="45.60033" lon="6.54085">
        <ele>1606.91</ele>
        <time>2017-07-11T06:54:15Z</time>
      </trkpt>
      <trkpt lat="45.60044" lon="6.54106">
        <ele>1604.4</ele>
        <time>2017-07-11T06:54:32Z</time>
      </trkpt>
      <trkpt lat="45.60058" lon="6.54123">
        <ele>1606.36</ele>
        <time>2017-07-11T06:54:44Z</time>
      </trkpt>
      <trkpt lat="45.60072" lon="6.54142">
        <ele>1607.56</ele>
        <time>2017-07-11T06:54:58Z</time>
      </trkpt>
      <trkpt lat="45.60086" lon="6.5416">
        <ele>1606.65</ele>
        <time>2017-07-11T06:55:13Z</time>
      </trkpt>
      <trkpt lat="45.60095" lon="6.54183">
        <ele>1606.3</ele>
        <time>2017-07-11T06:55:28Z</time>
      </trkpt>
      <trkpt lat="45.60104" lon="6.54205">
        <ele>1608.49</ele>
        <time>2017-07-11T06:55:41Z</time>
      </trkpt>
      <trkpt lat="45.60117" lon="6.54225">
        <ele>1611.48</ele>
        <time>2017-07-11T06:55:55Z</time>
      </trkpt>
      <trkpt lat="45.60129" lon="6.54245">
        <ele>1612.52</ele>
        <time>2017-07-11T06:56:09Z</time>
      </trkpt>
      <trkpt lat="45.6013" lon="6.54271">
        <ele>1614.13</ele>
        <time>2017-07-11T06:56:21Z</time>
      </trkpt>
      <trkpt lat="45.60138" lon="6.54295">
        <ele>1614.74</ele>
        <time>2017-07-11T06:56:36Z</time>
      </trkpt>
      <trkpt lat="45.60143" lon="6.54322">
        <ele>1620.52</ele>
        <time>2017-07-11T06:56:52Z</time>
      </trkpt>
      <trkpt lat="45.6015" lon="6.54346">
        <ele>1626.57</ele>
        <time>2017-07-11T06:57:08Z</time>
      </trkpt>
      <trkpt lat="45.60165" lon="6.54361">
        <ele>1625.53</ele>
        <time>2017-07-11T06:57:23Z</time>
      </trkpt>
      <trkpt lat="45.60176" lon="6.54383">
        <ele>1627.49</ele>
        <time>2017-07-11T06:57:35Z</time>
      </trkpt>
      <trkpt lat="45.60184" lon="6.54407">
        <ele>1629.7</ele>
        <time>2017-07-11T06:57:49Z</time>
      </trkpt>
      <trkpt lat="45.60191" lon="6.54431">
        <ele>1634.12</ele>
        <time>2017-07-11T06:58:03Z</time>
      </trkpt>
      <trkpt lat="45.60207" lon="6.54449">
        <ele>1636.57</ele>
        <time>2017-07-11T06:58:17Z</time>
      </trkpt>
      <trkpt lat="45.60223" lon="6.54464">
        <ele>1636.54</ele>
        <time>2017-07-11T06:58:30Z</time>
      </trkpt>
      <trkpt lat="45.6024" lon="6.54472">
        <ele>1635.66</ele>
        <time>2017-07-11T06:58:46Z</time>
      </trkpt>
      <trkpt lat="45.60254" lon="6.54491">
        <ele>1636.57</ele>
        <time>2017-07-11T06:59:00Z</time>
      </trkpt>
      <trkpt lat="45.60269" lon="6.54505">
        <ele>1636.33</ele>
        <time>2017-07-11T06:59:20Z</time>
      </trkpt>
      <trkpt lat="45.60286" lon="6.54516">
        <ele>1638.92</ele>
        <time>2017-07-11T06:59:54Z</time>
      </trkpt>
      <trkpt lat="45.603" lon="6.54535">
        <ele>1640.48</ele>
        <time>2017-07-11T07:00:10Z</time>
      </trkpt>
      <trkpt lat="45.60316" lon="6.54548">
        <ele>1642.52</ele>
        <time>2017-07-11T07:00:23Z</time>
      </trkpt>
      <trkpt lat="45.60329" lon="6.54567">
        <ele>1649.33</ele>
        <time>2017-07-11T07:00:39Z</time>
      </trkpt>
      <trkpt lat="45.60344" lon="6.54584">
        <ele>1648.56</ele>
        <time>2017-07-11T07:00:56Z</time>
      </trkpt>
      <trkpt lat="45.60357" lon="6.54602">
        <ele>1653.28</ele>
        <time>2017-07-11T07:01:12Z</time>
      </trkpt>
      <trkpt lat="45.60375" lon="6.54606">
        <ele>1653.69</ele>
        <time>2017-07-11T07:01:30Z</time>
      </trkpt>
      <trkpt lat="45.60394" lon="6.54605">
        <ele>1652.94</ele>
        <time>2017-07-11T07:01:46Z</time>
      </trkpt>
      <trkpt lat="45.60409" lon="6.54619">
        <ele>1654.52</ele>
        <time>2017-07-11T07:02:04Z</time>
      </trkpt>
      <trkpt lat="45.60427" lon="6.5463">
        <ele>1655.77</ele>
        <time>2017-07-11T07:02:22Z</time>
      </trkpt>
      <trkpt lat="45.60444" lon="6.54637">
        <ele>1663.32</ele>
        <time>2017-07-11T07:02:43Z</time>
      </trkpt>
      <trkpt lat="45.60461" lon="6.54647">
        <ele>1666.53</ele>
        <time>2017-07-11T07:03:00Z</time>
      </trkpt>
      <trkpt lat="45.60478" lon="6.54659">
        <ele>1668.53</ele>
        <time>2017-07-11T07:03:16Z</time>
      </trkpt>
      <trkpt lat="45.60495" lon="6.54668">
        <ele>1667.32</ele>
        <time>2017-07-11T07:03:31Z</time>
      </trkpt>
      <trkpt lat="45.6051" lon="6.54682">
        <ele>1668.33</ele>
        <time>2017-07-11T07:03:54Z</time>
      </trkpt>
      <trkpt lat="45.60527" lon="6.54695">
        <ele>1672.33</ele>
        <time>2017-07-11T07:04:12Z</time>
      </trkpt>
      <trkpt lat="45.60544" lon="6.54704">
        <ele>1673.53</ele>
        <time>2017-07-11T07:04:30Z</time>
      </trkpt>
      <trkpt lat="45.60559" lon="6.54721">
        <ele>1679.28</ele>
        <time>2017-07-11T07:04:49Z</time>
      </trkpt>
      <trkpt lat="45.60573" lon="6.54738">
        <ele>1683.32</ele>
        <time>2017-07-11T07:05:11Z</time>
      </trkpt>
      <trkpt lat="45.60591" lon="6.54738">
        <ele>1686.77</ele>
        <time>2017-07-11T07:05:27Z</time>
      </trkpt>
      <trkpt lat="45.6061" lon="6.54742">
        <ele>1685.54</ele>
        <time>2017-07-11T07:05:42Z</time>
      </trkpt>
      <trkpt lat="45.60626" lon="6.54755">
        <ele>1691.32</ele>
        <time>2017-07-11T07:06:00Z</time>
      </trkpt>
      <trkpt lat="45.60637" lon="6.54775">
        <ele>1694.73</ele>
        <time>2017-07-11T07:06:19Z</time>
      </trkpt>
      <trkpt lat="45.60656" lon="6.5478">
        <ele>1699.48</ele>
        <time>2017-07-11T07:06:41Z</time>
      </trkpt>
      <trkpt lat="45.60672" lon="6.54793">
        <ele>1703.37</ele>
        <time>2017-07-11T07:06:52Z</time>
      </trkpt>
      <trkpt lat="45.60691" lon="6.54796">
        <ele>1703.52</ele>
        <time>2017-07-11T07:07:05Z</time>
      </trkpt>
      <trkpt lat="45.60711" lon="6.548">
        <ele>1706.53</ele>
        <time>2017-07-11T07:07:22Z</time>
      </trkpt>
      <trkpt lat="45.60729" lon="6.54808">
        <ele>1701.58</ele>
        <time>2017-07-11T07:07:38Z</time>
      </trkpt>
      <trkpt lat="45.60748" lon="6.54809">
        <ele>1712.28</ele>
        <time>2017-07-11T07:08:03Z</time>
      </trkpt>
      <trkpt lat="45.60765" lon="6.54819">
        <ele>1708.8</ele>
        <time>2017-07-11T07:08:11Z</time>
      </trkpt>
      <trkpt lat="45.60786" lon="6.54826">
        <ele>1706.54</ele>
        <time>2017-07-11T07:08:24Z</time>
      </trkpt>
      <trkpt lat="45.60802" lon="6.54816">
        <ele>1705.73</ele>
        <time>2017-07-11T07:08:29Z</time>
      </trkpt>
      <trkpt lat="45.60818" lon="6.54829">
        <ele>1706.49</ele>
        <time>2017-07-11T07:08:50Z</time>
      </trkpt>
      <trkpt lat="45.60837" lon="6.54832">
        <ele>1704.7</ele>
        <time>2017-07-11T07:09:16Z</time>
      </trkpt>
      <trkpt lat="45.60856" lon="6.54839">
        <ele>1701.73</ele>
        <time>2017-07-11T07:09:32Z</time>
      </trkpt>
      <trkpt lat="45.60874" lon="6.54843">
        <ele>1701.72</ele>
        <time>2017-07-11T07:09:47Z</time>
      </trkpt>
      <trkpt lat="45.60891" lon="6.54852">
        <ele>1702.34</ele>
        <time>2017-07-11T07:10:07Z</time>
      </trkpt>
      <trkpt lat="45.60884" lon="6.54878">
        <ele>1697.37</ele>
        <time>2017-07-11T07:10:30Z</time>
      </trkpt>
      <trkpt lat="45.60869" lon="6.54891">
        <ele>1699.69</ele>
        <time>2017-07-11T07:10:48Z</time>
      </trkpt>
      <trkpt lat="45.60852" lon="6.54903">
        <ele>1701.52</ele>
        <time>2017-07-11T07:11:03Z</time>
      </trkpt>
      <trkpt lat="45.60837" lon="6.54918">
        <ele>1704.69</ele>
        <time>2017-07-11T07:11:21Z</time>
      </trkpt>
      <trkpt lat="45.60821" lon="6.54928">
        <ele>1704.53</ele>
        <time>2017-07-11T07:11:37Z</time>
      </trkpt>
      <trkpt lat="45.60811" lon="6.54952">
        <ele>1703.53</ele>
        <time>2017-07-11T07:11:50Z</time>
      </trkpt>
      <trkpt lat="45.60799" lon="6.54974">
        <ele>1705.53</ele>
        <time>2017-07-11T07:12:06Z</time>
      </trkpt>
      <trkpt lat="45.60784" lon="6.54991">
        <ele>1706.72</ele>
        <time>2017-07-11T07:12:22Z</time>
      </trkpt>
      <trkpt lat="45.60768" lon="6.55004">
        <ele>1708.53</ele>
        <time>2017-07-11T07:12:35Z</time>
      </trkpt>
      <trkpt lat="45.6075" lon="6.55015">
        <ele>1708.54</ele>
        <time>2017-07-11T07:12:49Z</time>
      </trkpt>
      <trkpt lat="45.60731" lon="6.55031">
        <ele>1708.37</ele>
        <time>2017-07-11T07:13:01Z</time>
      </trkpt>
      <trkpt lat="45.60716" lon="6.55047">
        <ele>1715.45</ele>
        <time>2017-07-11T07:13:25Z</time>
      </trkpt>
      <trkpt lat="45.607" lon="6.55066">
        <ele>1712.9</ele>
        <time>2017-07-11T07:13:39Z</time>
      </trkpt>
      <trkpt lat="45.60689" lon="6.55087">
        <ele>1712.12</ele>
        <time>2017-07-11T07:13:56Z</time>
      </trkpt>
      <trkpt lat="45.60695" lon="6.55113">
        <ele>1716.59</ele>
        <time>2017-07-11T07:14:51Z</time>
      </trkpt>
      <trkpt lat="45.60709" lon="6.55133">
        <ele>1716.33</ele>
        <time>2017-07-11T07:15:17Z</time>
      </trkpt>
      <trkpt lat="45.60727" lon="6.5513">
        <ele>1725.32</ele>
        <time>2017-07-11T07:15:37Z</time>
      </trkpt>
      <trkpt lat="45.60746" lon="6.55132">
        <ele>1717.77</ele>
        <time>2017-07-11T07:15:59Z</time>
      </trkpt>
      <trkpt lat="45.60764" lon="6.55132">
        <ele>1724.29</ele>
        <time>2017-07-11T07:16:25Z</time>
      </trkpt>
      <trkpt lat="45.60782" lon="6.55132">
        <ele>1724.4</ele>
        <time>2017-07-11T07:16:42Z</time>
      </trkpt>
      <trkpt lat="45.60802" lon="6.55133">
        <ele>1725.38</ele>
        <time>2017-07-11T07:17:00Z</time>
      </trkpt>
      <trkpt lat="45.60807" lon="6.55107">
        <ele>1734.48</ele>
        <time>2017-07-11T07:17:21Z</time>
      </trkpt>
      <trkpt lat="45.60825" lon="6.55104">
        <ele>1746.49</ele>
        <time>2017-07-11T07:17:42Z</time>
      </trkpt>
      <trkpt lat="45.60844" lon="6.55103">
        <ele>1749.53</ele>
        <time>2017-07-11T07:18:00Z</time>
      </trkpt>
      <trkpt lat="45.60859" lon="6.5509">
        <ele>1749.53</ele>
        <time>2017-07-11T07:18:18Z</time>
      </trkpt>
      <trkpt lat="45.60877" lon="6.55089">
        <ele>1753.49</ele>
        <time>2017-07-11T07:18:33Z</time>
      </trkpt>
      <trkpt lat="45.60894" lon="6.55077">
        <ele>1759.49</ele>
        <time>2017-07-11T07:18:55Z</time>
      </trkpt>
      <trkpt lat="45.6091" lon="6.55098">
        <ele>1758.93</ele>
        <time>2017-07-11T07:19:14Z</time>
      </trkpt>
      <trkpt lat="45.60927" lon="6.55107">
        <ele>1756.5</ele>
        <time>2017-07-11T07:19:27Z</time>
      </trkpt>
      <trkpt lat="45.60945" lon="6.55109">
        <ele>1760.69</ele>
        <time>2017-07-11T07:19:53Z</time>
      </trkpt>
      <trkpt lat="45.60962" lon="6.55098">
        <ele>1770.49</ele>
        <time>2017-07-11T07:20:16Z</time>
      </trkpt>
      <trkpt lat="45.6098" lon="6.551">
        <ele>1771.54</ele>
        <time>2017-07-11T07:20:43Z</time>
      </trkpt>
      <trkpt lat="45.60998" lon="6.55103">
        <ele>1775.54</ele>
        <time>2017-07-11T07:21:06Z</time>
      </trkpt>
      <trkpt lat="45.61017" lon="6.55101">
        <ele>1779.73</ele>
        <time>2017-07-11T07:22:14Z</time>
      </trkpt>
      <trkpt lat="45.61035" lon="6.55094">
        <ele>1781.33</ele>
        <time>2017-07-11T07:22:37Z</time>
      </trkpt>
      <trkpt lat="45.61053" lon="6.55097">
        <ele>1791.33</ele>
        <time>2017-07-11T07:23:05Z</time>
      </trkpt>
      <trkpt lat="45.61072" lon="6.55097">
        <ele>1789.54</ele>
        <time>2017-07-11T07:23:27Z</time>
      </trkpt>
      <trkpt lat="45.61089" lon="6.55089">
        <ele>1802.33</ele>
        <time>2017-07-11T07:24:04Z</time>
      </trkpt>
      <trkpt lat="45.61106" lon="6.55101">
        <ele>1802.53</ele>
        <time>2017-07-11T07:24:28Z</time>
      </trkpt>
      <trkpt lat="45.61121" lon="6.55115">
        <ele>1811.49</ele>
        <time>2017-07-11T07:24:52Z</time>
      </trkpt>
      <trkpt lat="45.61132" lon="6.55093">
        <ele>1810.74</ele>
        <time>2017-07-11T07:25:06Z</time>
      </trkpt>
      <trkpt lat="45.61149" lon="6.55083">
        <ele>1806.76</ele>
        <time>2017-07-11T07:25:22Z</time>
      </trkpt>
      <trkpt lat="45.61168" lon="6.55094">
        <ele>1806.08</ele>
        <time>2017-07-11T07:25:39Z</time>
      </trkpt>
      <trkpt lat="45.61185" lon="6.55085">
        <ele>1808.53</ele>
        <time>2017-07-11T07:25:57Z</time>
      </trkpt>
      <trkpt lat="45.61197" lon="6.55065">
        <ele>1816.4</ele>
        <time>2017-07-11T07:26:17Z</time>
      </trkpt>
      <trkpt lat="45.61206" lon="6.55041">
        <ele>1819.56</ele>
        <time>2017-07-11T07:26:36Z</time>
      </trkpt>
      <trkpt lat="45.61222" lon="6.55053">
        <ele>1818.69</ele>
        <time>2017-07-11T07:26:46Z</time>
      </trkpt>
      <trkpt lat="45.61241" lon="6.55046">
        <ele>1816.83</ele>
        <time>2017-07-11T07:27:07Z</time>
      </trkpt>
      <trkpt lat="45.6126" lon="6.55042">
        <ele>1824.56</ele>
        <time>2017-07-11T07:27:26Z</time>
      </trkpt>
      <trkpt lat="45.61278" lon="6.55045">
        <ele>1828.52</ele>
        <time>2017-07-11T07:27:43Z</time>
      </trkpt>
      <trkpt lat="45.61297" lon="6.55045">
        <ele>1826.09</ele>
        <time>2017-07-11T07:27:54Z</time>
      </trkpt>
      <trkpt lat="45.61316" lon="6.55054">
        <ele>1827.69</ele>
        <time>2017-07-11T07:28:14Z</time>
      </trkpt>
      <trkpt lat="45.61334" lon="6.55055">
        <ele>1834.32</ele>
        <time>2017-07-11T07:28:29Z</time>
      </trkpt>
      <trkpt lat="45.61353" lon="6.55052">
        <ele>1828.49</ele>
        <time>2017-07-11T07:28:49Z</time>
      </trkpt>
      <trkpt lat="45.61372" lon="6.55054">
        <ele>1832.02</ele>
        <time>2017-07-11T07:29:03Z</time>
      </trkpt>
      <trkpt lat="45.6139" lon="6.5505">
        <ele>1834.35</ele>
        <time>2017-07-11T07:29:15Z</time>
      </trkpt>
      <trkpt lat="45.61407" lon="6.55062">
        <ele>1830.36</ele>
        <time>2017-07-11T07:29:40Z</time>
      </trkpt>
      <trkpt lat="45.61425" lon="6.5506">
        <ele>1834.77</ele>
        <time>2017-07-11T07:29:56Z</time>
      </trkpt>
      <trkpt lat="45.61443" lon="6.55051">
        <ele>1834.53</ele>
        <time>2017-07-11T07:30:11Z</time>
      </trkpt>
      <trkpt lat="45.61462" lon="6.55055">
        <ele>1834.74</ele>
        <time>2017-07-11T07:30:27Z</time>
      </trkpt>
      <trkpt lat="45.61478" lon="6.55069">
        <ele>1842.61</ele>
        <time>2017-07-11T07:30:45Z</time>
      </trkpt>
      <trkpt lat="45.61493" lon="6.55084">
        <ele>1844.43</ele>
        <time>2017-07-11T07:31:07Z</time>
      </trkpt>
      <trkpt lat="45.61506" lon="6.55101">
        <ele>1861.17</ele>
        <time>2017-07-11T07:32:14Z</time>
      </trkpt>
      <trkpt lat="45.61521" lon="6.55117">
        <ele>1857.37</ele>
        <time>2017-07-11T07:32:32Z</time>
      </trkpt>
      <trkpt lat="45.61539" lon="6.55126">
        <ele>1858.69</ele>
        <time>2017-07-11T07:32:50Z</time>
      </trkpt>
      <trkpt lat="45.61557" lon="6.55125">
        <ele>1857.78</ele>
        <time>2017-07-11T07:33:04Z</time>
      </trkpt>
      <trkpt lat="45.61568" lon="6.55146">
        <ele>1856.56</ele>
        <time>2017-07-11T07:33:23Z</time>
      </trkpt>
      <trkpt lat="45.61583" lon="6.55162">
        <ele>1858.5</ele>
        <time>2017-07-11T07:33:38Z</time>
      </trkpt>
      <trkpt lat="45.61595" lon="6.55181">
        <ele>1859.81</ele>
        <time>2017-07-11T07:33:56Z</time>
      </trkpt>
      <trkpt lat="45.6161" lon="6.55197">
        <ele>1856.54</ele>
        <time>2017-07-11T07:34:10Z</time>
      </trkpt>
      <trkpt lat="45.61626" lon="6.55211">
        <ele>1857.48</ele>
        <time>2017-07-11T07:34:25Z</time>
      </trkpt>
      <trkpt lat="45.61642" lon="6.55227">
        <ele>1856.44</ele>
        <time>2017-07-11T07:34:40Z</time>
      </trkpt>
      <trkpt lat="45.61657" lon="6.55242">
        <ele>1861.33</ele>
        <time>2017-07-11T07:34:57Z</time>
      </trkpt>
      <trkpt lat="45.6167" lon="6.5526">
        <ele>1865.52</ele>
        <time>2017-07-11T07:35:16Z</time>
      </trkpt>
      <trkpt lat="45.6169" lon="6.55275">
        <ele>1881.28</ele>
        <time>2017-07-11T07:35:44Z</time>
      </trkpt>
      <trkpt lat="45.61708" lon="6.55272">
        <ele>1883.53</ele>
        <time>2017-07-11T07:36:21Z</time>
      </trkpt>
      <trkpt lat="45.61715" lon="6.55248">
        <ele>1884.53</ele>
        <time>2017-07-11T07:36:51Z</time>
      </trkpt>
      <trkpt lat="45.6173" lon="6.55234">
        <ele>1886.33</ele>
        <time>2017-07-11T07:37:18Z</time>
      </trkpt>
      <trkpt lat="45.61749" lon="6.55236">
        <ele>1893.53</ele>
        <time>2017-07-11T07:37:47Z</time>
      </trkpt>
      <trkpt lat="45.61768" lon="6.55235">
        <ele>1896.7</ele>
        <time>2017-07-11T07:38:07Z</time>
      </trkpt>
      <trkpt lat="45.61786" lon="6.55235">
        <ele>1899.33</ele>
        <time>2017-07-11T07:38:27Z</time>
      </trkpt>
      <trkpt lat="45.61804" lon="6.55239">
        <ele>1901.53</ele>
        <time>2017-07-11T07:38:50Z</time>
      </trkpt>
      <trkpt lat="45.61822" lon="6.5525">
        <ele>1911.3</ele>
        <time>2017-07-11T07:39:17Z</time>
      </trkpt>
      <trkpt lat="45.61837" lon="6.55262">
        <ele>1913.57</ele>
        <time>2017-07-11T07:39:37Z</time>
      </trkpt>
      <trkpt lat="45.61852" lon="6.55279">
        <ele>1924.52</ele>
        <time>2017-07-11T07:40:16Z</time>
      </trkpt>
      <trkpt lat="45.6187" lon="6.55281">
        <ele>1932.96</ele>
        <time>2017-07-11T07:40:43Z</time>
      </trkpt>
      <trkpt lat="45.61885" lon="6.55296">
        <ele>1936.74</ele>
        <time>2017-07-11T07:41:06Z</time>
      </trkpt>
      <trkpt lat="45.619" lon="6.55319">
        <ele>1940.54</ele>
        <time>2017-07-11T07:41:56Z</time>
      </trkpt>
      <trkpt lat="45.61897" lon="6.55292">
        <ele>1945.29</ele>
        <time>2017-07-11T07:42:02Z</time>
      </trkpt>
      <trkpt lat="45.61914" lon="6.553">
        <ele>1950.39</ele>
        <time>2017-07-11T07:42:15Z</time>
      </trkpt>
      <trkpt lat="45.61925" lon="6.55322">
        <ele>1952.46</ele>
        <time>2017-07-11T07:43:41Z</time>
      </trkpt>
      <trkpt lat="45.61938" lon="6.5534">
        <ele>1951.8</ele>
        <time>2017-07-11T07:43:58Z</time>
      </trkpt>
      <trkpt lat="45.61956" lon="6.55353">
        <ele>1953.57</ele>
        <time>2017-07-11T07:44:14Z</time>
      </trkpt>
      <trkpt lat="45.61974" lon="6.55363">
        <ele>1957.3</ele>
        <time>2017-07-11T07:44:30Z</time>
      </trkpt>
      <trkpt lat="45.6199" lon="6.55377">
        <ele>1958.53</ele>
        <time>2017-07-11T07:44:53Z</time>
      </trkpt>
      <trkpt lat="45.61996" lon="6.5535">
        <ele>1963.69</ele>
        <time>2017-07-11T07:45:19Z</time>
      </trkpt>
      <trkpt lat="45.62014" lon="6.55355">
        <ele>1971.53</ele>
        <time>2017-07-11T07:45:43Z</time>
      </trkpt>
      <trkpt lat="45.62028" lon="6.55335">
        <ele>1979.26</ele>
        <time>2017-07-11T07:46:07Z</time>
      </trkpt>
      <trkpt lat="45.62045" lon="6.55329">
        <ele>1980.29</ele>
        <time>2017-07-11T07:46:33Z</time>
      </trkpt>
      <trkpt lat="45.62062" lon="6.55342">
        <ele>1981.57</ele>
        <time>2017-07-11T07:46:50Z</time>
      </trkpt>
      <trkpt lat="45.62079" lon="6.55352">
        <ele>1988.53</ele>
        <time>2017-07-11T07:47:59Z</time>
      </trkpt>
      <trkpt lat="45.62094" lon="6.55331">
        <ele>1997.3</ele>
        <time>2017-07-11T07:48:27Z</time>
      </trkpt>
      <trkpt lat="45.62104" lon="6.55308">
        <ele>2006.53</ele>
        <time>2017-07-11T07:49:03Z</time>
      </trkpt>
      <trkpt lat="45.62112" lon="6.55284">
        <ele>2019.53</ele>
        <time>2017-07-11T07:51:01Z</time>
      </trkpt>
      <trkpt lat="45.62121" lon="6.55259">
        <ele>2012.54</ele>
        <time>2017-07-11T07:51:28Z</time>
      </trkpt>
      <trkpt lat="45.62141" lon="6.55263">
        <ele>2021.13</ele>
        <time>2017-07-11T07:51:54Z</time>
      </trkpt>
      <trkpt lat="45.62156" lon="6.5528">
        <ele>2020.66</ele>
        <time>2017-07-11T07:52:39Z</time>
      </trkpt>
      <trkpt lat="45.62175" lon="6.55286">
        <ele>2027.13</ele>
        <time>2017-07-11T07:53:16Z</time>
      </trkpt>
      <trkpt lat="45.62193" lon="6.55292">
        <ele>2031.57</ele>
        <time>2017-07-11T07:53:45Z</time>
      </trkpt>
      <trkpt lat="45.62211" lon="6.55303">
        <ele>2037.27</ele>
        <time>2017-07-11T07:54:23Z</time>
      </trkpt>
      <trkpt lat="45.62242" lon="6.55304">
        <ele>2006.32</ele>
        <time>2017-07-11T07:54:57Z</time>
      </trkpt>
      <trkpt lat="45.62261" lon="6.55306">
        <ele>2050.14</ele>
        <time>2017-07-11T07:55:43Z</time>
      </trkpt>
      <trkpt lat="45.62278" lon="6.55317">
        <ele>2054.57</ele>
        <time>2017-07-11T07:56:03Z</time>
      </trkpt>
      <trkpt lat="45.62296" lon="6.55328">
        <ele>2055.77</ele>
        <time>2017-07-11T07:56:48Z</time>
      </trkpt>
      <trkpt lat="45.62314" lon="6.55334">
        <ele>2058.28</ele>
        <time>2017-07-11T07:57:13Z</time>
      </trkpt>
      <trkpt lat="45.62332" lon="6.5534">
        <ele>2065.36</ele>
        <time>2017-07-11T07:57:37Z</time>
      </trkpt>
      <trkpt lat="45.62348" lon="6.55353">
        <ele>2064.74</ele>
        <time>2017-07-11T07:58:01Z</time>
      </trkpt>
      <trkpt lat="45.62365" lon="6.55365">
        <ele>2079.75</ele>
        <time>2017-07-11T07:59:32Z</time>
      </trkpt>
      <trkpt lat="45.62383" lon="6.55364">
        <ele>2084.68</ele>
        <time>2017-07-11T08:00:13Z</time>
      </trkpt>
      <trkpt lat="45.624" lon="6.55375">
        <ele>2094.33</ele>
        <time>2017-07-11T08:01:31Z</time>
      </trkpt>
      <trkpt lat="45.62412" lon="6.55399">
        <ele>2100.13</ele>
        <time>2017-07-11T08:03:12Z</time>
      </trkpt>
      <trkpt lat="45.62425" lon="6.55418">
        <ele>2108.72</ele>
        <time>2017-07-11T08:03:47Z</time>
      </trkpt>
      <trkpt lat="45.62436" lon="6.55439">
        <ele>2113.37</ele>
        <time>2017-07-11T08:04:59Z</time>
      </trkpt>
      <trkpt lat="45.6243" lon="6.55463">
        <ele>2121.47</ele>
        <time>2017-07-11T08:05:31Z</time>
      </trkpt>
      <trkpt lat="45.62423" lon="6.55488">
        <ele>2118.94</ele>
        <time>2017-07-11T08:06:03Z</time>
      </trkpt>
      <trkpt lat="45.62422" lon="6.55514">
        <ele>2129.13</ele>
        <time>2017-07-11T08:07:39Z</time>
      </trkpt>
      <trkpt lat="45.62424" lon="6.55542">
        <ele>2130.49</ele>
        <time>2017-07-11T08:07:59Z</time>
      </trkpt>
      <trkpt lat="45.62419" lon="6.55567">
        <ele>2133.32</ele>
        <time>2017-07-11T08:08:15Z</time>
      </trkpt>
      <trkpt lat="45.62413" lon="6.55592">
        <ele>2134.5</ele>
        <time>2017-07-11T08:08:31Z</time>
      </trkpt>
      <trkpt lat="45.62415" lon="6.55618">
        <ele>2133.33</ele>
        <time>2017-07-11T08:08:51Z</time>
      </trkpt>
      <trkpt lat="45.62411" lon="6.55644">
        <ele>2130.54</ele>
        <time>2017-07-11T08:09:07Z</time>
      </trkpt>
      <trkpt lat="45.62411" lon="6.55671">
        <ele>2129.73</ele>
        <time>2017-07-11T08:09:31Z</time>
      </trkpt>
      <trkpt lat="45.62409" lon="6.55697">
        <ele>2129.53</ele>
        <time>2017-07-11T08:09:46Z</time>
      </trkpt>
      <trkpt lat="45.62405" lon="6.55723">
        <ele>2124</ele>
        <time>2017-07-11T08:10:03Z</time>
      </trkpt>
      <trkpt lat="45.62404" lon="6.55749">
        <ele>2125.33</ele>
        <time>2017-07-11T08:10:21Z</time>
      </trkpt>
      <trkpt lat="45.62404" lon="6.55776">
        <ele>2130.12</ele>
        <time>2017-07-11T08:10:37Z</time>
      </trkpt>
      <trkpt lat="45.62402" lon="6.55802">
        <ele>2130.53</ele>
        <time>2017-07-11T08:10:57Z</time>
      </trkpt>
      <trkpt lat="45.62411" lon="6.55826">
        <ele>2127.74</ele>
        <time>2017-07-11T08:11:16Z</time>
      </trkpt>
      <trkpt lat="45.62411" lon="6.55852">
        <ele>2133.72</ele>
        <time>2017-07-11T08:11:35Z</time>
      </trkpt>
      <trkpt lat="45.62408" lon="6.55878">
        <ele>2133.73</ele>
        <time>2017-07-11T08:12:04Z</time>
      </trkpt>
      <trkpt lat="45.62412" lon="6.55904">
        <ele>2137.54</ele>
        <time>2017-07-11T08:12:23Z</time>
      </trkpt>
      <trkpt lat="45.62418" lon="6.55928">
        <ele>2135.73</ele>
        <time>2017-07-11T08:13:30Z</time>
      </trkpt>
      <trkpt lat="45.62427" lon="6.5595">
        <ele>2128.17</ele>
        <time>2017-07-11T08:15:23Z</time>
      </trkpt>
      <trkpt lat="45.62445" lon="6.55959">
        <ele>2134.21</ele>
        <time>2017-07-11T08:15:43Z</time>
      </trkpt>
      <trkpt lat="45.62451" lon="6.55986">
        <ele>2141.53</ele>
        <time>2017-07-11T08:16:23Z</time>
      </trkpt>
      <trkpt lat="45.62442" lon="6.56009">
        <ele>2140.64</ele>
        <time>2017-07-11T08:17:03Z</time>
      </trkpt>
      <trkpt lat="45.62431" lon="6.5603">
        <ele>2142.31</ele>
        <time>2017-07-11T08:17:20Z</time>
      </trkpt>
      <trkpt lat="45.62422" lon="6.56056">
        <ele>2137.94</ele>
        <time>2017-07-11T08:17:33Z</time>
      </trkpt>
      <trkpt lat="45.62414" lon="6.5608">
        <ele>2141.33</ele>
        <time>2017-07-11T08:17:51Z</time>
      </trkpt>
      <trkpt lat="45.62402" lon="6.56102">
        <ele>2142.14</ele>
        <time>2017-07-11T08:18:08Z</time>
      </trkpt>
      <trkpt lat="45.62387" lon="6.56118">
        <ele>2140.53</ele>
        <time>2017-07-11T08:18:21Z</time>
      </trkpt>
      <trkpt lat="45.62376" lon="6.56141">
        <ele>2144.3</ele>
        <time>2017-07-11T08:18:37Z</time>
      </trkpt>
      <trkpt lat="45.62367" lon="6.56164">
        <ele>2142.34</ele>
        <time>2017-07-11T08:18:51Z</time>
      </trkpt>
      <trkpt lat="45.62367" lon="6.56193">
        <ele>2140.68</ele>
        <time>2017-07-11T08:19:04Z</time>
      </trkpt>
      <trkpt lat="45.62377" lon="6.56217">
        <ele>2143.37</ele>
        <time>2017-07-11T08:19:16Z</time>
      </trkpt>
      <trkpt lat="45.6237" lon="6.56241">
        <ele>2145.61</ele>
        <time>2017-07-11T08:19:33Z</time>
      </trkpt>
      <trkpt lat="45.62366" lon="6.5627">
        <ele>2149.69</ele>
        <time>2017-07-11T08:19:54Z</time>
      </trkpt>
      <trkpt lat="45.62359" lon="6.56295">
        <ele>2148.53</ele>
        <time>2017-07-11T08:20:13Z</time>
      </trkpt>
      <trkpt lat="45.62351" lon="6.5632">
        <ele>2151.57</ele>
        <time>2017-07-11T08:20:31Z</time>
      </trkpt>
      <trkpt lat="45.62346" lon="6.56347">
        <ele>2153.93</ele>
        <time>2017-07-11T08:20:58Z</time>
      </trkpt>
      <trkpt lat="45.62344" lon="6.56373">
        <ele>2101.08</ele>
        <time>2017-07-11T08:21:18Z</time>
      </trkpt>
      <trkpt lat="45.6233" lon="6.56389">
        <ele>2154.49</ele>
        <time>2017-07-11T08:21:34Z</time>
      </trkpt>
      <trkpt lat="45.62312" lon="6.56381">
        <ele>2140.61</ele>
        <time>2017-07-11T08:22:31Z</time>
      </trkpt>
      <trkpt lat="45.62293" lon="6.56381">
        <ele>2152.09</ele>
        <time>2017-07-11T08:23:03Z</time>
      </trkpt>
      <trkpt lat="45.62276" lon="6.5637">
        <ele>2168.53</ele>
        <time>2017-07-11T08:23:46Z</time>
      </trkpt>
      <trkpt lat="45.62258" lon="6.56371">
        <ele>2175.48</ele>
        <time>2017-07-11T08:24:19Z</time>
      </trkpt>
      <trkpt lat="45.6224" lon="6.56364">
        <ele>2169.45</ele>
        <time>2017-07-11T08:25:07Z</time>
      </trkpt>
      <trkpt lat="45.62222" lon="6.56364">
        <ele>2186.7</ele>
        <time>2017-07-11T08:26:15Z</time>
      </trkpt>
      <trkpt lat="45.62204" lon="6.56368">
        <ele>2191.5</ele>
        <time>2017-07-11T08:27:03Z</time>
      </trkpt>
      <trkpt lat="45.62186" lon="6.56363">
        <ele>2199.74</ele>
        <time>2017-07-11T08:28:10Z</time>
      </trkpt>
      <trkpt lat="45.62168" lon="6.56365">
        <ele>2212.67</ele>
        <time>2017-07-11T08:29:17Z</time>
      </trkpt>
      <trkpt lat="45.62149" lon="6.56369">
        <ele>2225.73</ele>
        <time>2017-07-11T08:30:48Z</time>
      </trkpt>
      <trkpt lat="45.62167" lon="6.5636">
        <ele>2217.65</ele>
        <time>2017-07-11T08:33:58Z</time>
      </trkpt>
      <trkpt lat="45.62185" lon="6.56358">
        <ele>2214.73</ele>
        <time>2017-07-11T08:34:48Z</time>
      </trkpt>
      <trkpt lat="45.62203" lon="6.56367">
        <ele>2197.5</ele>
        <time>2017-07-11T08:35:14Z</time>
      </trkpt>
      <trkpt lat="45.62221" lon="6.56369">
        <ele>2191.03</ele>
        <time>2017-07-11T08:35:46Z</time>
      </trkpt>
      <trkpt lat="45.62239" lon="6.56374">
        <ele>2181.58</ele>
        <time>2017-07-11T08:36:29Z</time>
      </trkpt>
      <trkpt lat="45.62256" lon="6.56368">
        <ele>2167.74</ele>
        <time>2017-07-11T08:36:58Z</time>
      </trkpt>
      <trkpt lat="45.62273" lon="6.5638">
        <ele>2163.53</ele>
        <time>2017-07-11T08:37:23Z</time>
      </trkpt>
      <trkpt lat="45.62292" lon="6.56376">
        <ele>2141.77</ele>
        <time>2017-07-11T08:37:51Z</time>
      </trkpt>
      <trkpt lat="45.62308" lon="6.56389">
        <ele>2150.52</ele>
        <time>2017-07-11T08:38:11Z</time>
      </trkpt>
      <trkpt lat="45.62325" lon="6.56398">
        <ele>2149.54</ele>
        <time>2017-07-11T08:38:29Z</time>
      </trkpt>
      <trkpt lat="45.62341" lon="6.56412">
        <ele>2145.57</ele>
        <time>2017-07-11T08:38:49Z</time>
      </trkpt>
      <trkpt lat="45.62353" lon="6.56432">
        <ele>2138.37</ele>
        <time>2017-07-11T08:39:13Z</time>
      </trkpt>
      <trkpt lat="45.6236" lon="6.56457">
        <ele>2138.53</ele>
        <time>2017-07-11T08:39:28Z</time>
      </trkpt>
      <trkpt lat="45.62372" lon="6.56477">
        <ele>2141.52</ele>
        <time>2017-07-11T08:39:43Z</time>
      </trkpt>
      <trkpt lat="45.6238" lon="6.56501">
        <ele>2140.53</ele>
        <time>2017-07-11T08:40:00Z</time>
      </trkpt>
      <trkpt lat="45.62392" lon="6.56519">
        <ele>2142.53</ele>
        <time>2017-07-11T08:40:27Z</time>
      </trkpt>
      <trkpt lat="45.62401" lon="6.56542">
        <ele>2160.17</ele>
        <time>2017-07-11T08:41:24Z</time>
      </trkpt>
      <trkpt lat="45.62408" lon="6.56566">
        <ele>2164.78</ele>
        <time>2017-07-11T08:42:33Z</time>
      </trkpt>
      <trkpt lat="45.6239" lon="6.56558">
        <ele>2176.33</ele>
        <time>2017-07-11T08:43:38Z</time>
      </trkpt>
      <trkpt lat="45.62375" lon="6.56545">
        <ele>2181.53</ele>
        <time>2017-07-11T08:43:59Z</time>
      </trkpt>
      <trkpt lat="45.62359" lon="6.56532">
        <ele>2183.5</ele>
        <time>2017-07-11T08:44:18Z</time>
      </trkpt>
      <trkpt lat="45.62339" lon="6.56527">
        <ele>2181.87</ele>
        <time>2017-07-11T08:44:41Z</time>
      </trkpt>
      <trkpt lat="45.6232" lon="6.56529">
        <ele>2196.19</ele>
        <time>2017-07-11T08:45:12Z</time>
      </trkpt>
      <trkpt lat="45.62303" lon="6.5652">
        <ele>2194.73</ele>
        <time>2017-07-11T08:45:31Z</time>
      </trkpt>
      <trkpt lat="45.62291" lon="6.56499">
        <ele>2197.72</ele>
        <time>2017-07-11T08:46:06Z</time>
      </trkpt>
      <trkpt lat="45.62274" lon="6.56492">
        <ele>2214.32</ele>
        <time>2017-07-11T08:47:14Z</time>
      </trkpt>
      <trkpt lat="45.62256" lon="6.56486">
        <ele>2214.54</ele>
        <time>2017-07-11T08:47:39Z</time>
      </trkpt>
      <trkpt lat="45.62238" lon="6.5648">
        <ele>2224.52</ele>
        <time>2017-07-11T08:48:31Z</time>
      </trkpt>
      <trkpt lat="45.6222" lon="6.56485">
        <ele>2235.52</ele>
        <time>2017-07-11T08:49:24Z</time>
      </trkpt>
      <trkpt lat="45.62202" lon="6.5649">
        <ele>2242.53</ele>
        <time>2017-07-11T08:50:27Z</time>
      </trkpt>
      <trkpt lat="45.62185" lon="6.56476">
        <ele>2248.54</ele>
        <time>2017-07-11T08:51:02Z</time>
      </trkpt>
      <trkpt lat="45.62171" lon="6.5646">
        <ele>2253.33</ele>
        <time>2017-07-11T08:51:19Z</time>
      </trkpt>
      <trkpt lat="45.62164" lon="6.56436">
        <ele>2249.77</ele>
        <time>2017-07-11T08:51:40Z</time>
      </trkpt>
      <trkpt lat="45.62148" lon="6.56423">
        <ele>2252.34</ele>
        <time>2017-07-11T08:51:54Z</time>
      </trkpt>
      <trkpt lat="45.62132" lon="6.56413">
        <ele>2257.53</ele>
        <time>2017-07-11T08:52:11Z</time>
      </trkpt>
      <trkpt lat="45.62114" lon="6.56405">
        <ele>2260.72</ele>
        <time>2017-07-11T08:52:29Z</time>
      </trkpt>
      <trkpt lat="45.62103" lon="6.56385">
        <ele>2264.32</ele>
        <time>2017-07-11T08:52:45Z</time>
      </trkpt>
      <trkpt lat="45.62087" lon="6.564">
        <ele>2268.54</ele>
        <time>2017-07-11T08:52:59Z</time>
      </trkpt>
      <trkpt lat="45.62073" lon="6.56383">
        <ele>2279.69</ele>
        <time>2017-07-11T08:53:37Z</time>
      </trkpt>
      <trkpt lat="45.62072" lon="6.56356">
        <ele>2282.5</ele>
        <time>2017-07-11T08:54:31Z</time>
      </trkpt>
      <trkpt lat="45.6206" lon="6.56336">
        <ele>2292.49</ele>
        <time>2017-07-11T08:55:21Z</time>
      </trkpt>
      <trkpt lat="45.6204" lon="6.56333">
        <ele>2307.65</ele>
        <time>2017-07-11T08:56:11Z</time>
      </trkpt>
      <trkpt lat="45.62025" lon="6.5632">
        <ele>2315.33</ele>
        <time>2017-07-11T08:57:05Z</time>
      </trkpt>
      <trkpt lat="45.6202" lon="6.56293">
        <ele>2326.49</ele>
        <time>2017-07-11T08:58:11Z</time>
      </trkpt>
      <trkpt lat="45.62007" lon="6.56274">
        <ele>2336.24</ele>
        <time>2017-07-11T08:59:05Z</time>
      </trkpt>
      <trkpt lat="45.61999" lon="6.56251">
        <ele>2353.48</ele>
        <time>2017-07-11T09:00:45Z</time>
      </trkpt>
      <trkpt lat="45.61993" lon="6.56225">
        <ele>2359.57</ele>
        <time>2017-07-11T09:01:28Z</time>
      </trkpt>
      <trkpt lat="45.61985" lon="6.56202">
        <ele>2357.93</ele>
        <time>2017-07-11T09:02:18Z</time>
      </trkpt>
      <trkpt lat="45.61995" lon="6.56225">
        <ele>2357.56</ele>
        <time>2017-07-11T09:03:12Z</time>
      </trkpt>
      <trkpt lat="45.61974" lon="6.56224">
        <ele>2356.11</ele>
        <time>2017-07-11T09:03:55Z</time>
      </trkpt>
      <trkpt lat="45.61971" lon="6.56249">
        <ele>2348.57</ele>
        <time>2017-07-11T09:04:14Z</time>
      </trkpt>
      <trkpt lat="45.61973" lon="6.56276">
        <ele>2333.77</ele>
        <time>2017-07-11T09:04:43Z</time>
      </trkpt>
      <trkpt lat="45.61971" lon="6.56302">
        <ele>2327.73</ele>
        <time>2017-07-11T09:05:02Z</time>
      </trkpt>
      <trkpt lat="45.61982" lon="6.56325">
        <ele>2321.73</ele>
        <time>2017-07-11T09:05:19Z</time>
      </trkpt>
      <trkpt lat="45.61996" lon="6.56343">
        <ele>2315.91</ele>
        <time>2017-07-11T09:05:33Z</time>
      </trkpt>
      <trkpt lat="45.6201" lon="6.56362">
        <ele>2301.01</ele>
        <time>2017-07-11T09:06:00Z</time>
      </trkpt>
      <trkpt lat="45.62021" lon="6.56383">
        <ele>2288.78</ele>
        <time>2017-07-11T09:06:12Z</time>
      </trkpt>
      <trkpt lat="45.62016" lon="6.5641">
        <ele>2283.53</ele>
        <time>2017-07-11T09:06:25Z</time>
      </trkpt>
      <trkpt lat="45.62027" lon="6.56431">
        <ele>2275.54</ele>
        <time>2017-07-11T09:06:39Z</time>
      </trkpt>
      <trkpt lat="45.62041" lon="6.56448">
        <ele>2269.74</ele>
        <time>2017-07-11T09:06:58Z</time>
      </trkpt>
      <trkpt lat="45.6206" lon="6.56446">
        <ele>2262.57</ele>
        <time>2017-07-11T09:07:11Z</time>
      </trkpt>
      <trkpt lat="45.62077" lon="6.56456">
        <ele>2252.7</ele>
        <time>2017-07-11T09:07:23Z</time>
      </trkpt>
      <trkpt lat="45.62095" lon="6.5647">
        <ele>2251.52</ele>
        <time>2017-07-11T09:07:33Z</time>
      </trkpt>
      <trkpt lat="45.62109" lon="6.56491">
        <ele>2244.77</ele>
        <time>2017-07-11T09:07:40Z</time>
      </trkpt>
      <trkpt lat="45.62125" lon="6.56507">
        <ele>2240.94</ele>
        <time>2017-07-11T09:07:46Z</time>
      </trkpt>
      <trkpt lat="45.62142" lon="6.56518">
        <ele>2236.73</ele>
        <time>2017-07-11T09:07:57Z</time>
      </trkpt>
      <trkpt lat="45.6214" lon="6.56547">
        <ele>2230.73</ele>
        <time>2017-07-11T09:08:06Z</time>
      </trkpt>
      <trkpt lat="45.62146" lon="6.56572">
        <ele>2229.3</ele>
        <time>2017-07-11T09:08:14Z</time>
      </trkpt>
      <trkpt lat="45.62161" lon="6.5659">
        <ele>2227.76</ele>
        <time>2017-07-11T09:08:24Z</time>
      </trkpt>
      <trkpt lat="45.62155" lon="6.56614">
        <ele>2222.78</ele>
        <time>2017-07-11T09:08:40Z</time>
      </trkpt>
      <trkpt lat="45.62142" lon="6.56635">
        <ele>2216.63</ele>
        <time>2017-07-11T09:08:48Z</time>
      </trkpt>
      <trkpt lat="45.62128" lon="6.56654">
        <ele>2211.78</ele>
        <time>2017-07-11T09:08:57Z</time>
      </trkpt>
      <trkpt lat="45.62124" lon="6.5668">
        <ele>2198.75</ele>
        <time>2017-07-11T09:09:12Z</time>
      </trkpt>
      <trkpt lat="45.62125" lon="6.56706">
        <ele>2190.38</ele>
        <time>2017-07-11T09:09:26Z</time>
      </trkpt>
      <trkpt lat="45.62141" lon="6.56719">
        <ele>2181.57</ele>
        <time>2017-07-11T09:09:42Z</time>
      </trkpt>
      <trkpt lat="45.62156" lon="6.56736">
        <ele>2177.5</ele>
        <time>2017-07-11T09:10:02Z</time>
      </trkpt>
      <trkpt lat="45.62175" lon="6.56728">
        <ele>2173.52</ele>
        <time>2017-07-11T09:10:18Z</time>
      </trkpt>
      <trkpt lat="45.62194" lon="6.56718">
        <ele>2168.58</ele>
        <time>2017-07-11T09:10:32Z</time>
      </trkpt>
      <trkpt lat="45.62212" lon="6.56712">
        <ele>2163.63</ele>
        <time>2017-07-11T09:10:40Z</time>
      </trkpt>
      <trkpt lat="45.62227" lon="6.56698">
        <ele>2156.73</ele>
        <time>2017-07-11T09:10:56Z</time>
      </trkpt>
      <trkpt lat="45.62241" lon="6.5668">
        <ele>2154.37</ele>
        <time>2017-07-11T09:11:07Z</time>
      </trkpt>
      <trkpt lat="45.62259" lon="6.56669">
        <ele>2153.56</ele>
        <time>2017-07-11T09:11:19Z</time>
      </trkpt>
      <trkpt lat="45.62278" lon="6.56662">
        <ele>2156.1</ele>
        <time>2017-07-11T09:11:29Z</time>
      </trkpt>
      <trkpt lat="45.62296" lon="6.56652">
        <ele>2159.49</ele>
        <time>2017-07-11T09:11:40Z</time>
      </trkpt>
      <trkpt lat="45.62314" lon="6.56644">
        <ele>2152.94</ele>
        <time>2017-07-11T09:11:50Z</time>
      </trkpt>
      <trkpt lat="45.62333" lon="6.56635">
        <ele>2151.73</ele>
        <time>2017-07-11T09:11:57Z</time>
      </trkpt>
      <trkpt lat="45.62347" lon="6.56619">
        <ele>2153.32</ele>
        <time>2017-07-11T09:12:07Z</time>
      </trkpt>
      <trkpt lat="45.62361" lon="6.56603">
        <ele>2156.52</ele>
        <time>2017-07-11T09:12:18Z</time>
      </trkpt>
      <trkpt lat="45.6238" lon="6.56599">
        <ele>2159.54</ele>
        <time>2017-07-11T09:12:31Z</time>
      </trkpt>
      <trkpt lat="45.62398" lon="6.56593">
        <ele>2163.3</ele>
        <time>2017-07-11T09:12:41Z</time>
      </trkpt>
      <trkpt lat="45.62416" lon="6.56585">
        <ele>2168.48</ele>
        <time>2017-07-11T09:12:56Z</time>
      </trkpt>
      <trkpt lat="45.62412" lon="6.56558">
        <ele>2164.53</ele>
        <time>2017-07-11T09:13:18Z</time>
      </trkpt>
      <trkpt lat="45.62407" lon="6.56533">
        <ele>2163.74</ele>
        <time>2017-07-11T09:13:38Z</time>
      </trkpt>
      <trkpt lat="45.62396" lon="6.56511">
        <ele>2154.53</ele>
        <time>2017-07-11T09:13:56Z</time>
      </trkpt>
      <trkpt lat="45.62378" lon="6.56505">
        <ele>2144.82</ele>
        <time>2017-07-11T09:14:10Z</time>
      </trkpt>
      <trkpt lat="45.62364" lon="6.56487">
        <ele>2144.69</ele>
        <time>2017-07-11T09:14:26Z</time>
      </trkpt>
      <trkpt lat="45.62355" lon="6.56463">
        <ele>2140.79</ele>
        <time>2017-07-11T09:14:35Z</time>
      </trkpt>
      <trkpt lat="45.62351" lon="6.56438">
        <ele>2137.58</ele>
        <time>2017-07-11T09:14:45Z</time>
      </trkpt>
      <trkpt lat="45.62348" lon="6.56411">
        <ele>2136.97</ele>
        <time>2017-07-11T09:15:03Z</time>
      </trkpt>
      <trkpt lat="45.62352" lon="6.56382">
        <ele>2128.98</ele>
        <time>2017-07-11T09:15:14Z</time>
      </trkpt>
      <trkpt lat="45.62351" lon="6.56355">
        <ele>2127.41</ele>
        <time>2017-07-11T09:15:24Z</time>
      </trkpt>
      <trkpt lat="45.62349" lon="6.56329">
        <ele>2132.54</ele>
        <time>2017-07-11T09:15:34Z</time>
      </trkpt>
      <trkpt lat="45.6236" lon="6.56306">
        <ele>2133.54</ele>
        <time>2017-07-11T09:15:42Z</time>
      </trkpt>
      <trkpt lat="45.62364" lon="6.56278">
        <ele>2133.52</ele>
        <time>2017-07-11T09:15:50Z</time>
      </trkpt>
      <trkpt lat="45.62365" lon="6.56251">
        <ele>2134.36</ele>
        <time>2017-07-11T09:15:58Z</time>
      </trkpt>
      <trkpt lat="45.62368" lon="6.56224">
        <ele>2132.72</ele>
        <time>2017-07-11T09:16:10Z</time>
      </trkpt>
      <trkpt lat="45.62363" lon="6.562">
        <ele>2133.32</ele>
        <time>2017-07-11T09:16:20Z</time>
      </trkpt>
      <trkpt lat="45.62366" lon="6.56172">
        <ele>2130.54</ele>
        <time>2017-07-11T09:16:29Z</time>
      </trkpt>
      <trkpt lat="45.62376" lon="6.56148">
        <ele>2131.48</ele>
        <time>2017-07-11T09:16:37Z</time>
      </trkpt>
      <trkpt lat="45.62386" lon="6.56125">
        <ele>2128.54</ele>
        <time>2017-07-11T09:16:46Z</time>
      </trkpt>
      <trkpt lat="45.62394" lon="6.56099">
        <ele>2124.58</ele>
        <time>2017-07-11T09:16:56Z</time>
      </trkpt>
      <trkpt lat="45.62408" lon="6.5608">
        <ele>2122.57</ele>
        <time>2017-07-11T09:17:07Z</time>
      </trkpt>
      <trkpt lat="45.62425" lon="6.56067">
        <ele>2123.12</ele>
        <time>2017-07-11T09:17:18Z</time>
      </trkpt>
      <trkpt lat="45.62423" lon="6.5604">
        <ele>2129.52</ele>
        <time>2017-07-11T09:17:35Z</time>
      </trkpt>
      <trkpt lat="45.62431" lon="6.56016">
        <ele>2129.44</ele>
        <time>2017-07-11T09:17:48Z</time>
      </trkpt>
      <trkpt lat="45.62447" lon="6.56001">
        <ele>2129.73</ele>
        <time>2017-07-11T09:18:03Z</time>
      </trkpt>
      <trkpt lat="45.62453" lon="6.55976">
        <ele>2133.58</ele>
        <time>2017-07-11T09:19:42Z</time>
      </trkpt>
      <trkpt lat="45.6244" lon="6.55957">
        <ele>2129.73</ele>
        <time>2017-07-11T09:20:06Z</time>
      </trkpt>
      <trkpt lat="45.62435" lon="6.55932">
        <ele>2125.78</ele>
        <time>2017-07-11T09:20:22Z</time>
      </trkpt>
      <trkpt lat="45.62434" lon="6.55906">
        <ele>2118.73</ele>
        <time>2017-07-11T09:20:35Z</time>
      </trkpt>
      <trkpt lat="45.62434" lon="6.55878">
        <ele>2115.74</ele>
        <time>2017-07-11T09:20:51Z</time>
      </trkpt>
      <trkpt lat="45.62427" lon="6.55854">
        <ele>2114.54</ele>
        <time>2017-07-11T09:21:04Z</time>
      </trkpt>
      <trkpt lat="45.62428" lon="6.55827">
        <ele>2112.34</ele>
        <time>2017-07-11T09:21:18Z</time>
      </trkpt>
      <trkpt lat="45.62432" lon="6.55801">
        <ele>2109.57</ele>
        <time>2017-07-11T09:21:29Z</time>
      </trkpt>
      <trkpt lat="45.62435" lon="6.55772">
        <ele>2109.73</ele>
        <time>2017-07-11T09:21:39Z</time>
      </trkpt>
      <trkpt lat="45.62434" lon="6.55743">
        <ele>2111.73</ele>
        <time>2017-07-11T09:21:47Z</time>
      </trkpt>
      <trkpt lat="45.6244" lon="6.55717">
        <ele>2109.78</ele>
        <time>2017-07-11T09:21:55Z</time>
      </trkpt>
      <trkpt lat="45.62435" lon="6.55689">
        <ele>2110.52</ele>
        <time>2017-07-11T09:22:02Z</time>
      </trkpt>
      <trkpt lat="45.62436" lon="6.55662">
        <ele>2104.72</ele>
        <time>2017-07-11T09:22:15Z</time>
      </trkpt>
      <trkpt lat="45.62441" lon="6.55636">
        <ele>2103.73</ele>
        <time>2017-07-11T09:22:27Z</time>
      </trkpt>
      <trkpt lat="45.62445" lon="6.5561">
        <ele>2107.52</ele>
        <time>2017-07-11T09:22:38Z</time>
      </trkpt>
      <trkpt lat="45.62447" lon="6.55584">
        <ele>2110.33</ele>
        <time>2017-07-11T09:22:48Z</time>
      </trkpt>
      <trkpt lat="45.62449" lon="6.55556">
        <ele>2111.33</ele>
        <time>2017-07-11T09:23:02Z</time>
      </trkpt>
      <trkpt lat="45.6245" lon="6.55529">
        <ele>2113.53</ele>
        <time>2017-07-11T09:23:15Z</time>
      </trkpt>
      <trkpt lat="45.62446" lon="6.55502">
        <ele>2116.13</ele>
        <time>2017-07-11T09:23:30Z</time>
      </trkpt>
      <trkpt lat="45.62438" lon="6.55478">
        <ele>2114.54</ele>
        <time>2017-07-11T09:23:38Z</time>
      </trkpt>
      <trkpt lat="45.62433" lon="6.55453">
        <ele>2117.53</ele>
        <time>2017-07-11T09:23:50Z</time>
      </trkpt>
      <trkpt lat="45.62427" lon="6.55427">
        <ele>2120.49</ele>
        <time>2017-07-11T09:24:04Z</time>
      </trkpt>
      <trkpt lat="45.62408" lon="6.55428">
        <ele>2115.76</ele>
        <time>2017-07-11T09:24:15Z</time>
      </trkpt>
      <trkpt lat="45.62391" lon="6.55438">
        <ele>2109.77</ele>
        <time>2017-07-11T09:24:26Z</time>
      </trkpt>
      <trkpt lat="45.62374" lon="6.55448">
        <ele>2101.78</ele>
        <time>2017-07-11T09:24:38Z</time>
      </trkpt>
      <trkpt lat="45.62359" lon="6.55463">
        <ele>2094.63</ele>
        <time>2017-07-11T09:24:53Z</time>
      </trkpt>
      <trkpt lat="45.62341" lon="6.55471">
        <ele>2090.94</ele>
        <time>2017-07-11T09:25:05Z</time>
      </trkpt>
      <trkpt lat="45.62321" lon="6.55474">
        <ele>2083.73</ele>
        <time>2017-07-11T09:25:25Z</time>
      </trkpt>
      <trkpt lat="45.62301" lon="6.55477">
        <ele>2078.94</ele>
        <time>2017-07-11T09:25:35Z</time>
      </trkpt>
      <trkpt lat="45.62286" lon="6.55498">
        <ele>2073.35</ele>
        <time>2017-07-11T09:25:42Z</time>
      </trkpt>
      <trkpt lat="45.62267" lon="6.55497">
        <ele>2072.76</ele>
        <time>2017-07-11T09:25:49Z</time>
      </trkpt>
      <trkpt lat="45.62251" lon="6.55481">
        <ele>2062.63</ele>
        <time>2017-07-11T09:25:58Z</time>
      </trkpt>
      <trkpt lat="45.62242" lon="6.55459">
        <ele>2054.97</ele>
        <time>2017-07-11T09:26:08Z</time>
      </trkpt>
      <trkpt lat="45.62228" lon="6.55438">
        <ele>2051.78</ele>
        <time>2017-07-11T09:26:16Z</time>
      </trkpt>
      <trkpt lat="45.62209" lon="6.55431">
        <ele>2047.55</ele>
        <time>2017-07-11T09:26:28Z</time>
      </trkpt>
      <trkpt lat="45.62188" lon="6.55435">
        <ele>2041.78</ele>
        <time>2017-07-11T09:26:37Z</time>
      </trkpt>
      <trkpt lat="45.62167" lon="6.5544">
        <ele>2036.75</ele>
        <time>2017-07-11T09:26:48Z</time>
      </trkpt>
      <trkpt lat="45.62156" lon="6.55418">
        <ele>2030.57</ele>
        <time>2017-07-11T09:27:04Z</time>
      </trkpt>
      <trkpt lat="45.62142" lon="6.55401">
        <ele>2025.78</ele>
        <time>2017-07-11T09:27:22Z</time>
      </trkpt>
      <trkpt lat="45.62124" lon="6.55399">
        <ele>2019.57</ele>
        <time>2017-07-11T09:27:40Z</time>
      </trkpt>
      <trkpt lat="45.62104" lon="6.55403">
        <ele>2016.74</ele>
        <time>2017-07-11T09:27:55Z</time>
      </trkpt>
      <trkpt lat="45.62093" lon="6.55383">
        <ele>2003.73</ele>
        <time>2017-07-11T09:28:17Z</time>
      </trkpt>
      <trkpt lat="45.62079" lon="6.55363">
        <ele>1997.29</ele>
        <time>2017-07-11T09:28:38Z</time>
      </trkpt>
      <trkpt lat="45.62067" lon="6.55344">
        <ele>1992.59</ele>
        <time>2017-07-11T09:28:50Z</time>
      </trkpt>
      <trkpt lat="45.62048" lon="6.55344">
        <ele>1988.15</ele>
        <time>2017-07-11T09:28:59Z</time>
      </trkpt>
      <trkpt lat="45.62029" lon="6.55346">
        <ele>1979.42</ele>
        <time>2017-07-11T09:29:08Z</time>
      </trkpt>
      <trkpt lat="45.62013" lon="6.5536">
        <ele>1977.36</ele>
        <time>2017-07-11T09:29:18Z</time>
      </trkpt>
      <trkpt lat="45.61994" lon="6.55359">
        <ele>1970.77</ele>
        <time>2017-07-11T09:29:26Z</time>
      </trkpt>
      <trkpt lat="45.61981" lon="6.55376">
        <ele>1964.94</ele>
        <time>2017-07-11T09:29:43Z</time>
      </trkpt>
      <trkpt lat="45.61962" lon="6.55369">
        <ele>1961.54</ele>
        <time>2017-07-11T09:30:00Z</time>
      </trkpt>
      <trkpt lat="45.61946" lon="6.55355">
        <ele>1959.57</ele>
        <time>2017-07-11T09:30:10Z</time>
      </trkpt>
      <trkpt lat="45.61929" lon="6.55342">
        <ele>1957.49</ele>
        <time>2017-07-11T09:30:16Z</time>
      </trkpt>
      <trkpt lat="45.61916" lon="6.55325">
        <ele>1953.51</ele>
        <time>2017-07-11T09:30:25Z</time>
      </trkpt>
      <trkpt lat="45.61899" lon="6.55312">
        <ele>1949.53</ele>
        <time>2017-07-11T09:30:36Z</time>
      </trkpt>
      <trkpt lat="45.61882" lon="6.55303">
        <ele>1941.83</ele>
        <time>2017-07-11T09:30:44Z</time>
      </trkpt>
      <trkpt lat="45.61864" lon="6.55293">
        <ele>1937.57</ele>
        <time>2017-07-11T09:30:53Z</time>
      </trkpt>
      <trkpt lat="45.61847" lon="6.5528">
        <ele>1931.54</ele>
        <time>2017-07-11T09:31:04Z</time>
      </trkpt>
      <trkpt lat="45.61832" lon="6.55265">
        <ele>1926.74</ele>
        <time>2017-07-11T09:31:13Z</time>
      </trkpt>
      <trkpt lat="45.61814" lon="6.55254">
        <ele>1920.59</ele>
        <time>2017-07-11T09:31:21Z</time>
      </trkpt>
      <trkpt lat="45.61798" lon="6.55243">
        <ele>1912.58</ele>
        <time>2017-07-11T09:31:35Z</time>
      </trkpt>
      <trkpt lat="45.6178" lon="6.55237">
        <ele>1912.37</ele>
        <time>2017-07-11T09:31:48Z</time>
      </trkpt>
      <trkpt lat="45.61761" lon="6.55236">
        <ele>1901.76</ele>
        <time>2017-07-11T09:32:22Z</time>
      </trkpt>
      <trkpt lat="45.61743" lon="6.55232">
        <ele>1900.68</ele>
        <time>2017-07-11T09:32:33Z</time>
      </trkpt>
      <trkpt lat="45.61726" lon="6.5524">
        <ele>1895.38</ele>
        <time>2017-07-11T09:32:50Z</time>
      </trkpt>
      <trkpt lat="45.61709" lon="6.55252">
        <ele>1890.57</ele>
        <time>2017-07-11T09:33:03Z</time>
      </trkpt>
      <trkpt lat="45.61694" lon="6.55266">
        <ele>1882.57</ele>
        <time>2017-07-11T09:33:31Z</time>
      </trkpt>
      <trkpt lat="45.61682" lon="6.55246">
        <ele>1879.73</ele>
        <time>2017-07-11T09:33:45Z</time>
      </trkpt>
      <trkpt lat="45.61673" lon="6.55223">
        <ele>1873.73</ele>
        <time>2017-07-11T09:34:00Z</time>
      </trkpt>
      <trkpt lat="45.61657" lon="6.55208">
        <ele>1869.53</ele>
        <time>2017-07-11T09:34:14Z</time>
      </trkpt>
      <trkpt lat="45.61657" lon="6.55182">
        <ele>1863.54</ele>
        <time>2017-07-11T09:34:28Z</time>
      </trkpt>
      <trkpt lat="45.61639" lon="6.55192">
        <ele>1859.17</ele>
        <time>2017-07-11T09:34:55Z</time>
      </trkpt>
      <trkpt lat="45.61621" lon="6.55192">
        <ele>1859.53</ele>
        <time>2017-07-11T09:35:11Z</time>
      </trkpt>
      <trkpt lat="45.61604" lon="6.55177">
        <ele>1858.76</ele>
        <time>2017-07-11T09:35:26Z</time>
      </trkpt>
      <trkpt lat="45.61589" lon="6.55161">
        <ele>1861.34</ele>
        <time>2017-07-11T09:35:38Z</time>
      </trkpt>
      <trkpt lat="45.61573" lon="6.55147">
        <ele>1861.54</ele>
        <time>2017-07-11T09:35:49Z</time>
      </trkpt>
      <trkpt lat="45.61561" lon="6.55125">
        <ele>1859.54</ele>
        <time>2017-07-11T09:36:01Z</time>
      </trkpt>
      <trkpt lat="45.61543" lon="6.55128">
        <ele>1862.56</ele>
        <time>2017-07-11T09:36:16Z</time>
      </trkpt>
      <trkpt lat="45.61524" lon="6.55119">
        <ele>1861.49</ele>
        <time>2017-07-11T09:36:28Z</time>
      </trkpt>
      <trkpt lat="45.61509" lon="6.55106">
        <ele>1858.54</ele>
        <time>2017-07-11T09:36:40Z</time>
      </trkpt>
      <trkpt lat="45.61492" lon="6.55093">
        <ele>1853.57</ele>
        <time>2017-07-11T09:36:54Z</time>
      </trkpt>
      <trkpt lat="45.61475" lon="6.55082">
        <ele>1848.73</ele>
        <time>2017-07-11T09:37:06Z</time>
      </trkpt>
      <trkpt lat="45.61457" lon="6.5507">
        <ele>1850.73</ele>
        <time>2017-07-11T09:37:26Z</time>
      </trkpt>
      <trkpt lat="45.61438" lon="6.55064">
        <ele>1841.94</ele>
        <time>2017-07-11T09:37:40Z</time>
      </trkpt>
      <trkpt lat="45.6142" lon="6.55068">
        <ele>1840.52</ele>
        <time>2017-07-11T09:37:51Z</time>
      </trkpt>
      <trkpt lat="45.61401" lon="6.55073">
        <ele>1838.37</ele>
        <time>2017-07-11T09:38:02Z</time>
      </trkpt>
      <trkpt lat="45.61384" lon="6.55062">
        <ele>1840.53</ele>
        <time>2017-07-11T09:38:16Z</time>
      </trkpt>
      <trkpt lat="45.61365" lon="6.55062">
        <ele>1840.53</ele>
        <time>2017-07-11T09:38:30Z</time>
      </trkpt>
      <trkpt lat="45.61346" lon="6.55069">
        <ele>1837.53</ele>
        <time>2017-07-11T09:38:43Z</time>
      </trkpt>
      <trkpt lat="45.61328" lon="6.55058">
        <ele>1839.52</ele>
        <time>2017-07-11T09:38:55Z</time>
      </trkpt>
      <trkpt lat="45.61309" lon="6.55059">
        <ele>1837.53</ele>
        <time>2017-07-11T09:39:07Z</time>
      </trkpt>
      <trkpt lat="45.61291" lon="6.55056">
        <ele>1839.36</ele>
        <time>2017-07-11T09:39:17Z</time>
      </trkpt>
      <trkpt lat="45.61272" lon="6.5505">
        <ele>1837.54</ele>
        <time>2017-07-11T09:39:30Z</time>
      </trkpt>
      <trkpt lat="45.61253" lon="6.55052">
        <ele>1833.55</ele>
        <time>2017-07-11T09:39:45Z</time>
      </trkpt>
      <trkpt lat="45.61234" lon="6.55052">
        <ele>1833.57</ele>
        <time>2017-07-11T09:39:57Z</time>
      </trkpt>
      <trkpt lat="45.61215" lon="6.55052">
        <ele>1829.7</ele>
        <time>2017-07-11T09:40:09Z</time>
      </trkpt>
      <trkpt lat="45.61199" lon="6.55072">
        <ele>1821.81</ele>
        <time>2017-07-11T09:40:22Z</time>
      </trkpt>
      <trkpt lat="45.61183" lon="6.55084">
        <ele>1818.61</ele>
        <time>2017-07-11T09:40:31Z</time>
      </trkpt>
      <trkpt lat="45.61164" lon="6.55091">
        <ele>1816.52</ele>
        <time>2017-07-11T09:40:42Z</time>
      </trkpt>
      <trkpt lat="45.61145" lon="6.55091">
        <ele>1814.54</ele>
        <time>2017-07-11T09:40:54Z</time>
      </trkpt>
      <trkpt lat="45.61127" lon="6.55096">
        <ele>1805.77</ele>
        <time>2017-07-11T09:41:07Z</time>
      </trkpt>
      <trkpt lat="45.61109" lon="6.55103">
        <ele>1801.54</ele>
        <time>2017-07-11T09:41:21Z</time>
      </trkpt>
      <trkpt lat="45.61091" lon="6.55094">
        <ele>1803.77</ele>
        <time>2017-07-11T09:41:38Z</time>
      </trkpt>
      <trkpt lat="45.61072" lon="6.55094">
        <ele>1801.72</ele>
        <time>2017-07-11T09:41:51Z</time>
      </trkpt>
      <trkpt lat="45.61053" lon="6.55102">
        <ele>1796.77</ele>
        <time>2017-07-11T09:42:03Z</time>
      </trkpt>
      <trkpt lat="45.61035" lon="6.55098">
        <ele>1791.54</ele>
        <time>2017-07-11T09:42:26Z</time>
      </trkpt>
      <trkpt lat="45.61018" lon="6.55102">
        <ele>1789.53</ele>
        <time>2017-07-11T09:42:40Z</time>
      </trkpt>
      <trkpt lat="45.60999" lon="6.55105">
        <ele>1782.42</ele>
        <time>2017-07-11T09:42:51Z</time>
      </trkpt>
      <trkpt lat="45.6098" lon="6.55099">
        <ele>1781.9</ele>
        <time>2017-07-11T09:42:59Z</time>
      </trkpt>
      <trkpt lat="45.60961" lon="6.55101">
        <ele>1773.74</ele>
        <time>2017-07-11T09:43:10Z</time>
      </trkpt>
      <trkpt lat="45.60944" lon="6.55107">
        <ele>1766.58</ele>
        <time>2017-07-11T09:43:18Z</time>
      </trkpt>
      <trkpt lat="45.60925" lon="6.55104">
        <ele>1761.82</ele>
        <time>2017-07-11T09:43:26Z</time>
      </trkpt>
      <trkpt lat="45.60906" lon="6.55098">
        <ele>1753.73</ele>
        <time>2017-07-11T09:43:40Z</time>
      </trkpt>
      <trkpt lat="45.60888" lon="6.55098">
        <ele>1752.58</ele>
        <time>2017-07-11T09:43:52Z</time>
      </trkpt>
      <trkpt lat="45.60868" lon="6.55101">
        <ele>1752.33</ele>
        <time>2017-07-11T09:44:01Z</time>
      </trkpt>
      <trkpt lat="45.60846" lon="6.55106">
        <ele>1754.32</ele>
        <time>2017-07-11T09:44:08Z</time>
      </trkpt>
      <trkpt lat="45.60828" lon="6.55112">
        <ele>1750.9</ele>
        <time>2017-07-11T09:44:19Z</time>
      </trkpt>
      <trkpt lat="45.60809" lon="6.55112">
        <ele>1751.73</ele>
        <time>2017-07-11T09:44:32Z</time>
      </trkpt>
      <trkpt lat="45.60791" lon="6.55122">
        <ele>1749.72</ele>
        <time>2017-07-11T09:44:43Z</time>
      </trkpt>
      <trkpt lat="45.60772" lon="6.55128">
        <ele>1746.33</ele>
        <time>2017-07-11T09:44:58Z</time>
      </trkpt>
      <trkpt lat="45.60755" lon="6.55136">
        <ele>1741.97</ele>
        <time>2017-07-11T09:45:10Z</time>
      </trkpt>
      <trkpt lat="45.60736" lon="6.55133">
        <ele>1736.74</ele>
        <time>2017-07-11T09:45:24Z</time>
      </trkpt>
      <trkpt lat="45.60717" lon="6.55134">
        <ele>1734.66</ele>
        <time>2017-07-11T09:45:38Z</time>
      </trkpt>
      <trkpt lat="45.60699" lon="6.55125">
        <ele>1729.58</ele>
        <time>2017-07-11T09:45:51Z</time>
      </trkpt>
      <trkpt lat="45.6069" lon="6.55102">
        <ele>1717.59</ele>
        <time>2017-07-11T09:46:22Z</time>
      </trkpt>
      <trkpt lat="45.60693" lon="6.55076">
        <ele>1714.9</ele>
        <time>2017-07-11T09:46:37Z</time>
      </trkpt>
      <trkpt lat="45.60706" lon="6.55056">
        <ele>1712.53</ele>
        <time>2017-07-11T09:46:48Z</time>
      </trkpt>
      <trkpt lat="45.6072" lon="6.55036">
        <ele>1715.73</ele>
        <time>2017-07-11T09:47:04Z</time>
      </trkpt>
      <trkpt lat="45.60736" lon="6.55022">
        <ele>1712.57</ele>
        <time>2017-07-11T09:47:15Z</time>
      </trkpt>
      <trkpt lat="45.60754" lon="6.55013">
        <ele>1710.73</ele>
        <time>2017-07-11T09:47:28Z</time>
      </trkpt>
      <trkpt lat="45.60771" lon="6.55004">
        <ele>1705.78</ele>
        <time>2017-07-11T09:47:41Z</time>
      </trkpt>
      <trkpt lat="45.60786" lon="6.54988">
        <ele>1705.49</ele>
        <time>2017-07-11T09:47:53Z</time>
      </trkpt>
      <trkpt lat="45.60803" lon="6.54972">
        <ele>1705.36</ele>
        <time>2017-07-11T09:48:03Z</time>
      </trkpt>
      <trkpt lat="45.60812" lon="6.54949">
        <ele>1701.49</ele>
        <time>2017-07-11T09:48:17Z</time>
      </trkpt>
      <trkpt lat="45.60821" lon="6.54926">
        <ele>1704.73</ele>
        <time>2017-07-11T09:48:30Z</time>
      </trkpt>
      <trkpt lat="45.60837" lon="6.54914">
        <ele>1704.53</ele>
        <time>2017-07-11T09:48:40Z</time>
      </trkpt>
      <trkpt lat="45.60853" lon="6.54898">
        <ele>1702.33</ele>
        <time>2017-07-11T09:48:51Z</time>
      </trkpt>
      <trkpt lat="45.60868" lon="6.54885">
        <ele>1702.53</ele>
        <time>2017-07-11T09:49:04Z</time>
      </trkpt>
      <trkpt lat="45.60885" lon="6.54871">
        <ele>1703.33</ele>
        <time>2017-07-11T09:49:16Z</time>
      </trkpt>
      <trkpt lat="45.60874" lon="6.54851">
        <ele>1699.37</ele>
        <time>2017-07-11T09:49:43Z</time>
      </trkpt>
      <trkpt lat="45.60857" lon="6.5484">
        <ele>1696.61</ele>
        <time>2017-07-11T09:49:57Z</time>
      </trkpt>
      <trkpt lat="45.60839" lon="6.54831">
        <ele>1696.68</ele>
        <time>2017-07-11T09:50:12Z</time>
      </trkpt>
      <trkpt lat="45.6082" lon="6.5483">
        <ele>1694.54</ele>
        <time>2017-07-11T09:50:23Z</time>
      </trkpt>
      <trkpt lat="45.60801" lon="6.54831">
        <ele>1700.45</ele>
        <time>2017-07-11T09:50:34Z</time>
      </trkpt>
      <trkpt lat="45.60782" lon="6.54823">
        <ele>1698.1</ele>
        <time>2017-07-11T09:50:54Z</time>
      </trkpt>
      <trkpt lat="45.60764" lon="6.54819">
        <ele>1697.57</ele>
        <time>2017-07-11T09:50:59Z</time>
      </trkpt>
      <trkpt lat="45.60746" lon="6.54819">
        <ele>1701.29</ele>
        <time>2017-07-11T09:51:05Z</time>
      </trkpt>
      <trkpt lat="45.6073" lon="6.54802">
        <ele>1704.12</ele>
        <time>2017-07-11T09:51:24Z</time>
      </trkpt>
      <trkpt lat="45.60709" lon="6.54802">
        <ele>1704.57</ele>
        <time>2017-07-11T09:51:32Z</time>
      </trkpt>
      <trkpt lat="45.60687" lon="6.54801">
        <ele>1705.61</ele>
        <time>2017-07-11T09:51:56Z</time>
      </trkpt>
      <trkpt lat="45.60669" lon="6.54793">
        <ele>1699.53</ele>
        <time>2017-07-11T09:52:06Z</time>
      </trkpt>
      <trkpt lat="45.60646" lon="6.54788">
        <ele>1701.69</ele>
        <time>2017-07-11T09:52:17Z</time>
      </trkpt>
      <trkpt lat="45.60631" lon="6.54774">
        <ele>1702.49</ele>
        <time>2017-07-11T09:52:32Z</time>
      </trkpt>
      <trkpt lat="45.60619" lon="6.54755">
        <ele>1701.53</ele>
        <time>2017-07-11T09:52:48Z</time>
      </trkpt>
      <trkpt lat="45.606" lon="6.54751">
        <ele>1698.97</ele>
        <time>2017-07-11T09:53:00Z</time>
      </trkpt>
      <trkpt lat="45.60582" lon="6.54749">
        <ele>1697.53</ele>
        <time>2017-07-11T09:53:09Z</time>
      </trkpt>
      <trkpt lat="45.60568" lon="6.54732">
        <ele>1691.71</ele>
        <time>2017-07-11T09:53:20Z</time>
      </trkpt>
      <trkpt lat="45.6055" lon="6.54717">
        <ele>1690.71</ele>
        <time>2017-07-11T09:53:32Z</time>
      </trkpt>
      <trkpt lat="45.60531" lon="6.54706">
        <ele>1689.53</ele>
        <time>2017-07-11T09:53:44Z</time>
      </trkpt>
      <trkpt lat="45.60514" lon="6.54697">
        <ele>1680.38</ele>
        <time>2017-07-11T09:54:19Z</time>
      </trkpt>
      <trkpt lat="45.605" lon="6.5468">
        <ele>1669.37</ele>
        <time>2017-07-11T09:54:36Z</time>
      </trkpt>
      <trkpt lat="45.60483" lon="6.54672">
        <ele>1672.53</ele>
        <time>2017-07-11T09:54:49Z</time>
      </trkpt>
      <trkpt lat="45.60463" lon="6.54666">
        <ele>1671.72</ele>
        <time>2017-07-11T09:54:56Z</time>
      </trkpt>
      <trkpt lat="45.60448" lon="6.54649">
        <ele>1668.33</ele>
        <time>2017-07-11T09:55:06Z</time>
      </trkpt>
      <trkpt lat="45.6043" lon="6.54644">
        <ele>1666.33</ele>
        <time>2017-07-11T09:55:13Z</time>
      </trkpt>
      <trkpt lat="45.60412" lon="6.54629">
        <ele>1659.81</ele>
        <time>2017-07-11T09:55:26Z</time>
      </trkpt>
      <trkpt lat="45.60396" lon="6.54616">
        <ele>1658.53</ele>
        <time>2017-07-11T09:55:53Z</time>
      </trkpt>
      <trkpt lat="45.60377" lon="6.54608">
        <ele>1656.93</ele>
        <time>2017-07-11T09:56:08Z</time>
      </trkpt>
      <trkpt lat="45.60359" lon="6.54602">
        <ele>1654.5</ele>
        <time>2017-07-11T09:56:17Z</time>
      </trkpt>
      <trkpt lat="45.60346" lon="6.54581">
        <ele>1649.69</ele>
        <time>2017-07-11T09:56:27Z</time>
      </trkpt>
      <trkpt lat="45.60331" lon="6.54563">
        <ele>1642.9</ele>
        <time>2017-07-11T09:56:41Z</time>
      </trkpt>
      <trkpt lat="45.60315" lon="6.54551">
        <ele>1642.44</ele>
        <time>2017-07-11T09:56:56Z</time>
      </trkpt>
      <trkpt lat="45.603" lon="6.54536">
        <ele>1637.77</ele>
        <time>2017-07-11T09:57:06Z</time>
      </trkpt>
      <trkpt lat="45.60286" lon="6.54519">
        <ele>1635.52</ele>
        <time>2017-07-11T09:57:17Z</time>
      </trkpt>
      <trkpt lat="45.6027" lon="6.54506">
        <ele>1633.73</ele>
        <time>2017-07-11T09:57:31Z</time>
      </trkpt>
      <trkpt lat="45.60254" lon="6.54492">
        <ele>1633.5</ele>
        <time>2017-07-11T09:57:44Z</time>
      </trkpt>
      <trkpt lat="45.60238" lon="6.54478">
        <ele>1633.21</ele>
        <time>2017-07-11T09:57:56Z</time>
      </trkpt>
      <trkpt lat="45.60221" lon="6.54467">
        <ele>1631.37</ele>
        <time>2017-07-11T09:58:06Z</time>
      </trkpt>
      <trkpt lat="45.60207" lon="6.5445">
        <ele>1629.69</ele>
        <time>2017-07-11T09:58:19Z</time>
      </trkpt>
      <trkpt lat="45.60192" lon="6.54432">
        <ele>1630.57</ele>
        <time>2017-07-11T09:58:32Z</time>
      </trkpt>
      <trkpt lat="45.60182" lon="6.54408">
        <ele>1627.57</ele>
        <time>2017-07-11T09:58:44Z</time>
      </trkpt>
      <trkpt lat="45.60178" lon="6.54383">
        <ele>1625.57</ele>
        <time>2017-07-11T09:58:55Z</time>
      </trkpt>
      <trkpt lat="45.60167" lon="6.5436">
        <ele>1624.53</ele>
        <time>2017-07-11T09:59:08Z</time>
      </trkpt>
      <trkpt lat="45.60152" lon="6.54344">
        <ele>1622.53</ele>
        <time>2017-07-11T09:59:20Z</time>
      </trkpt>
      <trkpt lat="45.60142" lon="6.54322">
        <ele>1621.33</ele>
        <time>2017-07-11T09:59:31Z</time>
      </trkpt>
      <trkpt lat="45.60131" lon="6.543">
        <ele>1624.33</ele>
        <time>2017-07-11T09:59:42Z</time>
      </trkpt>
      <trkpt lat="45.60126" lon="6.54275">
        <ele>1621.73</ele>
        <time>2017-07-11T09:59:53Z</time>
      </trkpt>
      <trkpt lat="45.60117" lon="6.54252">
        <ele>1620.57</ele>
        <time>2017-07-11T10:00:06Z</time>
      </trkpt>
      <trkpt lat="45.60109" lon="6.54227">
        <ele>1617.53</ele>
        <time>2017-07-11T10:00:20Z</time>
      </trkpt>
      <trkpt lat="45.60094" lon="6.54211">
        <ele>1615.37</ele>
        <time>2017-07-11T10:00:31Z</time>
      </trkpt>
      <trkpt lat="45.60083" lon="6.54188">
        <ele>1615.57</ele>
        <time>2017-07-11T10:00:45Z</time>
      </trkpt>
      <trkpt lat="45.60075" lon="6.54163">
        <ele>1613.54</ele>
        <time>2017-07-11T10:00:57Z</time>
      </trkpt>
      <trkpt lat="45.60067" lon="6.54139">
        <ele>1609.54</ele>
        <time>2017-07-11T10:01:10Z</time>
      </trkpt>
      <trkpt lat="45.60053" lon="6.5412">
        <ele>1606.34</ele>
        <time>2017-07-11T10:01:22Z</time>
      </trkpt>
      <trkpt lat="45.60039" lon="6.54103">
        <ele>1605.72</ele>
        <time>2017-07-11T10:01:34Z</time>
      </trkpt>
      <trkpt lat="45.60028" lon="6.54081">
        <ele>1605.33</ele>
        <time>2017-07-11T10:01:48Z</time>
      </trkpt>
      <trkpt lat="45.60021" lon="6.54056">
        <ele>1602.73</ele>
        <time>2017-07-11T10:02:03Z</time>
      </trkpt>
      <trkpt lat="45.60014" lon="6.54031">
        <ele>1601.53</ele>
        <time>2017-07-11T10:02:17Z</time>
      </trkpt>
      <trkpt lat="45.60006" lon="6.54006">
        <ele>1598.7</ele>
        <time>2017-07-11T10:02:31Z</time>
      </trkpt>
      <trkpt lat="45.59994" lon="6.53986">
        <ele>1600.52</ele>
        <time>2017-07-11T10:02:42Z</time>
      </trkpt>
      <trkpt lat="45.59984" lon="6.53965">
        <ele>1598.57</ele>
        <time>2017-07-11T10:02:56Z</time>
      </trkpt>
      <trkpt lat="45.59969" lon="6.5395">
        <ele>1599.37</ele>
        <time>2017-07-11T10:03:08Z</time>
      </trkpt>
      <trkpt lat="45.5996" lon="6.53927">
        <ele>1594.53</ele>
        <time>2017-07-11T10:03:23Z</time>
      </trkpt>
      <trkpt lat="45.59949" lon="6.53905">
        <ele>1592.56</ele>
        <time>2017-07-11T10:03:36Z</time>
      </trkpt>
      <trkpt lat="45.59933" lon="6.53889">
        <ele>1590.73</ele>
        <time>2017-07-11T10:03:49Z</time>
      </trkpt>
      <trkpt lat="45.59919" lon="6.53871">
        <ele>1591.53</ele>
        <time>2017-07-11T10:04:03Z</time>
      </trkpt>
      <trkpt lat="45.59906" lon="6.53852">
        <ele>1590.32</ele>
        <time>2017-07-11T10:04:16Z</time>
      </trkpt>
      <trkpt lat="45.59891" lon="6.53836">
        <ele>1588.53</ele>
        <time>2017-07-11T10:04:28Z</time>
      </trkpt>
      <trkpt lat="45.59877" lon="6.53818">
        <ele>1586.49</ele>
        <time>2017-07-11T10:04:43Z</time>
      </trkpt>
      <trkpt lat="45.59865" lon="6.53798">
        <ele>1582.78</ele>
        <time>2017-07-11T10:04:54Z</time>
      </trkpt>
      <trkpt lat="45.59868" lon="6.53772">
        <ele>1584.72</ele>
        <time>2017-07-11T10:05:09Z</time>
      </trkpt>
      <trkpt lat="45.59854" lon="6.53755">
        <ele>1579.57</ele>
        <time>2017-07-11T10:05:41Z</time>
      </trkpt>
      <trkpt lat="45.59834" lon="6.53749">
        <ele>1574.53</ele>
        <time>2017-07-11T10:05:57Z</time>
      </trkpt>
      <trkpt lat="45.59815" lon="6.53751">
        <ele>1578.53</ele>
        <time>2017-07-11T10:06:07Z</time>
      </trkpt>
      <trkpt lat="45.59798" lon="6.53742">
        <ele>1577.56</ele>
        <time>2017-07-11T10:06:22Z</time>
      </trkpt>
      <trkpt lat="45.59785" lon="6.53723">
        <ele>1580.53</ele>
        <time>2017-07-11T10:06:38Z</time>
      </trkpt>
      <trkpt lat="45.59773" lon="6.53704">
        <ele>1569.55</ele>
        <time>2017-07-11T10:07:17Z</time>
      </trkpt>
      <trkpt lat="45.59759" lon="6.53685">
        <ele>1572.77</ele>
        <time>2017-07-11T10:07:36Z</time>
      </trkpt>
      <trkpt lat="45.59747" lon="6.53664">
        <ele>1567.75</ele>
        <time>2017-07-11T10:07:50Z</time>
      </trkpt>
      <trkpt lat="45.59733" lon="6.53643">
        <ele>1564.5</ele>
        <time>2017-07-11T10:08:02Z</time>
      </trkpt>
      <trkpt lat="45.59722" lon="6.53623">
        <ele>1566.73</ele>
        <time>2017-07-11T10:08:19Z</time>
      </trkpt>
      <trkpt lat="45.59705" lon="6.53613">
        <ele>1567.49</ele>
        <time>2017-07-11T10:08:32Z</time>
      </trkpt>
      <trkpt lat="45.59689" lon="6.53599">
        <ele>1566.33</ele>
        <time>2017-07-11T10:08:45Z</time>
      </trkpt>
      <trkpt lat="45.59682" lon="6.53574">
        <ele>1559.35</ele>
        <time>2017-07-11T10:09:01Z</time>
      </trkpt>
      <trkpt lat="45.5967" lon="6.53554">
        <ele>1555.7</ele>
        <time>2017-07-11T10:09:14Z</time>
      </trkpt>
      <trkpt lat="45.59653" lon="6.53541">
        <ele>1556.53</ele>
        <time>2017-07-11T10:09:28Z</time>
      </trkpt>
      <trkpt lat="45.59635" lon="6.53535">
        <ele>1554.57</ele>
        <time>2017-07-11T10:09:42Z</time>
      </trkpt>
      <trkpt lat="45.59616" lon="6.5353">
        <ele>1556.32</ele>
        <time>2017-07-11T10:09:55Z</time>
      </trkpt>
      <trkpt lat="45.59602" lon="6.53514">
        <ele>1554.37</ele>
        <time>2017-07-11T10:10:08Z</time>
      </trkpt>
      <trkpt lat="45.59587" lon="6.53494">
        <ele>1555.32</ele>
        <time>2017-07-11T10:10:24Z</time>
      </trkpt>
      <trkpt lat="45.59578" lon="6.53472">
        <ele>1553.76</ele>
        <time>2017-07-11T10:10:38Z</time>
      </trkpt>
      <trkpt lat="45.59565" lon="6.53453">
        <ele>1549.59</ele>
        <time>2017-07-11T10:10:50Z</time>
      </trkpt>
      <trkpt lat="45.5955" lon="6.53438">
        <ele>1551.73</ele>
        <time>2017-07-11T10:11:05Z</time>
      </trkpt>
      <trkpt lat="45.59534" lon="6.53424">
        <ele>1554.52</ele>
        <time>2017-07-11T10:11:18Z</time>
      </trkpt>
      <trkpt lat="45.59518" lon="6.53413">
        <ele>1554.36</ele>
        <time>2017-07-11T10:11:33Z</time>
      </trkpt>
      <trkpt lat="45.59507" lon="6.53393">
        <ele>1552.54</ele>
        <time>2017-07-11T10:11:45Z</time>
      </trkpt>
      <trkpt lat="45.59494" lon="6.53374">
        <ele>1546.93</ele>
        <time>2017-07-11T10:11:58Z</time>
      </trkpt>
      <trkpt lat="45.59476" lon="6.53363">
        <ele>1546.54</ele>
        <time>2017-07-11T10:12:12Z</time>
      </trkpt>
      <trkpt lat="45.59463" lon="6.53344">
        <ele>1546.57</ele>
        <time>2017-07-11T10:12:26Z</time>
      </trkpt>
      <trkpt lat="45.59451" lon="6.53322">
        <ele>1539.88</ele>
        <time>2017-07-11T10:12:42Z</time>
      </trkpt>
      <trkpt lat="45.59433" lon="6.53314">
        <ele>1534.54</ele>
        <time>2017-07-11T10:12:54Z</time>
      </trkpt>
      <trkpt lat="45.59414" lon="6.53304">
        <ele>1534.92</ele>
        <time>2017-07-11T10:13:07Z</time>
      </trkpt>
      <trkpt lat="45.59396" lon="6.53302">
        <ele>1537.52</ele>
        <time>2017-07-11T10:13:19Z</time>
      </trkpt>
      <trkpt lat="45.59378" lon="6.53293">
        <ele>1538.49</ele>
        <time>2017-07-11T10:13:37Z</time>
      </trkpt>
      <trkpt lat="45.59361" lon="6.53283">
        <ele>1541.33</ele>
        <time>2017-07-11T10:13:46Z</time>
      </trkpt>
      <trkpt lat="45.59342" lon="6.53275">
        <ele>1536.74</ele>
        <time>2017-07-11T10:14:00Z</time>
      </trkpt>
      <trkpt lat="45.59329" lon="6.53257">
        <ele>1532.48</ele>
        <time>2017-07-11T10:14:15Z</time>
      </trkpt>
      <trkpt lat="45.59313" lon="6.53242">
        <ele>1535.5</ele>
        <time>2017-07-11T10:14:31Z</time>
      </trkpt>
      <trkpt lat="45.59296" lon="6.53231">
        <ele>1527.31</ele>
        <time>2017-07-11T10:14:47Z</time>
      </trkpt>
      <trkpt lat="45.59278" lon="6.53227">
        <ele>1519.42</ele>
        <time>2017-07-11T10:15:00Z</time>
      </trkpt>
      <trkpt lat="45.59263" lon="6.53211">
        <ele>1516.57</ele>
        <time>2017-07-11T10:15:14Z</time>
      </trkpt>
      <trkpt lat="45.59244" lon="6.53205">
        <ele>1525.49</ele>
        <time>2017-07-11T10:15:25Z</time>
      </trkpt>
      <trkpt lat="45.59226" lon="6.53196">
        <ele>1521.69</ele>
        <time>2017-07-11T10:15:44Z</time>
      </trkpt>
      <trkpt lat="45.59218" lon="6.53172">
        <ele>1522.72</ele>
        <time>2017-07-11T10:15:56Z</time>
      </trkpt>
    </trkseg>
  </trk>
</gpx>